Time,TemperatureF,DewpointF,PressureIn,WindDirection,WindDirectionDegrees,WindSpeedMPH,WindSpeedGustMPH,Humidity,HourlyPrecipIn,Conditions,Clouds,dailyrainin,SoftwareType,DateUTC
2013-02-12 00:00:00,65.6,64.1,30.09,SSE,147,0.0,0.0,95,0.00,,,0.00,Wunderground v.1.15,2013-02-12 05:00:00,
2013-02-12 00:04:00,65.8,64.3,30.09,SSE,147,0.0,0.0,95,0.00,,,0.00,Wunderground v.1.15,2013-02-12 05:04:00,
2013-02-12 00:05:00,65.9,64.4,30.08,SSE,147,0.0,0.0,95,0.00,,,0.00,Wunderground v.1.15,2013-02-12 05:05:00,
2013-02-12 00:08:00,66.1,64.6,30.08,SSE,147,0.0,0.0,95,0.00,,,0.00,Wunderground v.1.15,2013-02-12 05:08:00,
2013-02-12 00:09:00,66.3,64.8,30.08,SSE,147,0.0,0.0,95,0.00,,,0.00,Wunderground v.1.15,2013-02-12 05:09:00,
2013-02-12 00:10:00,66.3,64.8,30.08,SSE,147,0.0,0.0,95,0.00,,,0.00,Wunderground v.1.15,2013-02-12 05:10:00,
2013-02-12 00:13:00,66.4,64.9,30.08,SSE,147,0.0,0.0,95,0.00,,,0.00,Wunderground v.1.15,2013-02-12 05:13:00,
2013-02-12 00:14:00,66.5,65.0,30.08,SSE,147,0.0,0.0,95,0.00,,,0.00,Wunderground v.1.15,2013-02-12 05:14:00,
2013-02-12 00:16:00,66.5,65.0,30.08,SSE,147,0.0,0.0,95,0.00,,,0.00,Wunderground v.1.15,2013-02-12 05:16:00,
2013-02-12 00:19:00,66.8,65.3,30.08,SSE,147,0.0,0.0,95,0.00,,,0.00,Wunderground v.1.15,2013-02-12 05:19:00,
2013-02-12 00:23:00,67.0,65.5,30.08,SSE,147,0.0,0.0,95,0.00,,,0.00,Wunderground v.1.15,2013-02-12 05:23:00,
2013-02-12 00:24:00,67.1,65.3,30.08,SSE,147,0.0,0.0,94,0.00,,,0.00,Wunderground v.1.15,2013-02-12 05:24:00,
2013-02-12 00:27:00,67.3,65.5,30.08,SSE,147,0.0,0.0,94,0.00,,,0.00,Wunderground v.1.15,2013-02-12 05:27:00,
2013-02-12 00:30:00,67.5,65.7,30.08,SSE,147,1.0,1.0,94,0.00,,,0.00,Wunderground v.1.15,2013-02-12 05:30:00,
2013-02-12 00:33:00,67.7,65.9,30.08,SSE,147,0.0,1.0,94,0.00,,,0.00,Wunderground v.1.15,2013-02-12 05:33:00,
2013-02-12 00:35:00,67.9,65.8,30.08,SSE,147,0.0,1.0,93,0.00,,,0.00,Wunderground v.1.15,2013-02-12 05:35:00,
2013-02-12 00:36:00,68.0,65.9,30.08,SSE,147,0.0,1.0,93,0.00,,,0.00,Wunderground v.1.15,2013-02-12 05:36:00,
2013-02-12 00:38:00,68.0,65.9,30.08,SSE,147,0.0,1.0,93,0.00,,,0.00,Wunderground v.1.15,2013-02-12 05:38:00,
2013-02-12 00:42:00,68.2,66.1,30.08,SSE,147,0.0,0.0,93,0.00,,,0.00,Wunderground v.1.15,2013-02-12 05:42:00,
2013-02-12 00:43:00,68.3,65.9,30.08,SSE,147,0.0,0.0,92,0.00,,,0.00,Wunderground v.1.15,2013-02-12 05:43:00,
2013-02-12 00:45:00,68.3,65.9,30.08,SSE,147,0.0,0.0,92,0.00,,,0.00,Wunderground v.1.15,2013-02-12 05:45:00,
2013-02-12 00:47:00,68.3,65.9,30.08,SSE,147,0.0,0.0,92,0.00,,,0.00,Wunderground v.1.15,2013-02-12 05:47:00,
2013-02-12 00:49:00,68.4,66.0,30.08,SSE,147,0.0,0.0,92,0.00,,,0.00,Wunderground v.1.15,2013-02-12 05:49:00,
2013-02-12 00:50:00,68.4,65.7,30.08,SSE,147,0.0,0.0,91,0.00,,,0.00,Wunderground v.1.15,2013-02-12 05:50:00,
2013-02-12 00:52:00,68.4,65.7,30.08,SSE,147,0.0,0.0,91,0.00,,,0.00,Wunderground v.1.15,2013-02-12 05:52:00,
2013-02-12 00:55:00,68.4,66.0,30.08,SSE,147,0.0,0.0,92,0.00,,,0.00,Wunderground v.1.15,2013-02-12 05:55:00,
2013-02-12 00:56:00,68.3,65.6,30.08,SSE,147,0.0,0.0,91,0.00,,,0.00,Wunderground v.1.15,2013-02-12 05:56:00,
2013-02-12 00:58:00,68.2,65.5,30.08,SSE,147,0.0,0.0,91,0.00,,,0.00,Wunderground v.1.15,2013-02-12 05:58:00,
2013-02-12 01:00:00,68.1,65.4,30.08,SSE,147,0.0,0.0,91,0.00,,,0.00,Wunderground v.1.15,2013-02-12 06:00:00,
2013-02-12 01:01:00,68.1,65.4,30.08,SSE,147,0.0,0.0,91,0.00,,,0.00,Wunderground v.1.15,2013-02-12 06:01:00,
2013-02-12 01:02:00,68.0,65.3,30.08,SSE,147,0.0,0.0,91,0.00,,,0.00,Wunderground v.1.15,2013-02-12 06:02:00,
2013-02-12 01:04:00,67.9,65.2,30.08,SSE,147,0.0,0.0,91,0.00,,,0.00,Wunderground v.1.15,2013-02-12 06:04:00,
2013-02-12 01:06:00,67.6,64.9,30.08,SSE,147,0.0,0.0,91,0.00,,,0.00,Wunderground v.1.15,2013-02-12 06:06:00,
2013-02-12 01:07:00,67.4,64.7,30.08,SSE,147,0.0,0.0,91,0.00,,,0.00,Wunderground v.1.15,2013-02-12 06:07:00,
2013-02-12 01:09:00,67.3,64.6,30.08,SSE,147,0.0,0.0,91,0.00,,,0.00,Wunderground v.1.15,2013-02-12 06:09:00,
2013-02-12 01:11:00,66.9,64.2,30.08,SSE,147,0.0,0.0,91,0.00,,,0.00,Wunderground v.1.15,2013-02-12 06:11:00,
2013-02-12 01:14:00,66.7,64.0,30.08,SSE,147,0.0,0.0,91,0.00,,,0.00,Wunderground v.1.15,2013-02-12 06:14:00,
2013-02-12 01:15:00,66.6,63.9,30.08,SSE,147,0.0,0.0,91,0.00,,,0.00,Wunderground v.1.15,2013-02-12 06:15:00,
2013-02-12 01:17:00,66.5,63.8,30.08,SSE,147,0.0,0.0,91,0.00,,,0.00,Wunderground v.1.15,2013-02-12 06:17:00,
2013-02-12 01:22:00,66.2,63.8,30.08,SSE,147,0.0,0.0,92,0.00,,,0.00,Wunderground v.1.15,2013-02-12 06:22:00,
2013-02-12 01:23:00,66.1,63.7,30.07,SSE,147,0.0,0.0,92,0.00,,,0.00,Wunderground v.1.15,2013-02-12 06:23:00,
2013-02-12 01:27:00,66.1,64.0,30.08,SSE,147,0.0,0.0,93,0.00,,,0.00,Wunderground v.1.15,2013-02-12 06:27:00,
2013-02-12 01:28:00,66.1,64.0,30.08,SSE,147,0.0,0.0,93,0.00,,,0.00,Wunderground v.1.15,2013-02-12 06:28:00,
2013-02-12 01:30:00,66.2,64.1,30.07,SSE,147,0.0,0.0,93,0.00,,,0.00,Wunderground v.1.15,2013-02-12 06:30:00,
2013-02-12 01:34:00,66.2,64.1,30.07,SSE,147,0.0,0.0,93,0.00,,,0.00,Wunderground v.1.15,2013-02-12 06:34:00,
2013-02-12 01:35:00,66.1,64.0,30.07,SSE,147,0.0,0.0,93,0.00,,,0.00,Wunderground v.1.15,2013-02-12 06:35:00,
2013-02-12 01:40:00,65.9,63.8,30.07,SSE,147,0.0,0.0,93,0.00,,,0.00,Wunderground v.1.15,2013-02-12 06:40:00,
2013-02-12 01:41:00,65.9,63.8,30.07,SSE,147,0.0,0.0,93,0.00,,,0.00,Wunderground v.1.15,2013-02-12 06:41:00,
2013-02-12 01:44:00,65.8,63.7,30.07,SSE,147,0.0,0.0,93,0.00,,,0.00,Wunderground v.1.15,2013-02-12 06:44:00,
2013-02-12 01:46:00,65.6,63.5,30.07,SSE,147,0.0,0.0,93,0.00,,,0.00,Wunderground v.1.15,2013-02-12 06:46:00,
2013-02-12 01:49:00,65.6,63.5,30.07,SSE,147,0.0,0.0,93,0.00,,,0.00,Wunderground v.1.15,2013-02-12 06:49:00,
2013-02-12 01:51:00,65.4,63.6,30.07,SSE,147,0.0,0.0,94,0.00,,,0.00,Wunderground v.1.15,2013-02-12 06:51:00,
2013-02-12 01:53:00,65.3,63.5,30.07,SSE,147,0.0,0.0,94,0.00,,,0.00,Wunderground v.1.15,2013-02-12 06:53:00,
2013-02-12 01:58:00,65.2,63.4,30.07,SSE,147,0.0,0.0,94,0.00,,,0.00,Wunderground v.1.15,2013-02-12 06:58:00,
2013-02-12 02:00:00,65.1,63.3,30.07,SSE,147,0.0,0.0,94,0.00,,,0.00,Wunderground v.1.15,2013-02-12 07:00:00,
2013-02-12 02:01:00,65.1,63.3,30.07,SSE,147,0.0,0.0,94,0.00,,,0.00,Wunderground v.1.15,2013-02-12 07:01:00,
2013-02-12 02:04:00,65.1,63.3,30.06,SSE,147,0.0,0.0,94,0.00,,,0.00,Wunderground v.1.15,2013-02-12 07:04:00,
2013-02-12 02:06:00,65.1,63.3,30.06,SSE,147,0.0,0.0,94,0.00,,,0.00,Wunderground v.1.15,2013-02-12 07:06:00,
2013-02-12 02:09:00,65.1,63.3,30.06,SSE,147,0.0,0.0,94,0.00,,,0.00,Wunderground v.1.15,2013-02-12 07:09:00,
2013-02-12 02:11:00,64.8,63.0,30.06,SSE,147,0.0,0.0,94,0.00,,,0.00,Wunderground v.1.15,2013-02-12 07:11:00,
2013-02-12 02:12:00,64.7,62.9,30.06,SSE,147,0.0,0.0,94,0.00,,,0.00,Wunderground v.1.15,2013-02-12 07:12:00,
2013-02-12 02:15:00,64.5,62.7,30.06,SSE,147,0.0,0.0,94,0.00,,,0.00,Wunderground v.1.15,2013-02-12 07:15:00,
2013-02-12 02:16:00,64.5,62.7,30.06,SSE,147,0.0,0.0,94,0.00,,,0.00,Wunderground v.1.15,2013-02-12 07:16:00,
2013-02-12 02:17:00,64.5,62.7,30.06,SSE,147,0.0,0.0,94,0.00,,,0.00,Wunderground v.1.15,2013-02-12 07:17:00,
2013-02-12 02:20:00,64.5,62.7,30.06,SSE,147,0.0,0.0,94,0.00,,,0.00,Wunderground v.1.15,2013-02-12 07:20:00,
2013-02-12 02:21:00,64.5,62.7,30.06,SSE,147,0.0,0.0,94,0.00,,,0.00,Wunderground v.1.15,2013-02-12 07:21:00,
2013-02-12 02:22:00,64.5,62.7,30.06,SSE,147,0.0,0.0,94,0.00,,,0.00,Wunderground v.1.15,2013-02-12 07:22:00,
2013-02-12 02:23:00,64.4,62.6,30.06,SSE,147,0.0,0.0,94,0.00,,,0.00,Wunderground v.1.15,2013-02-12 07:23:00,
2013-02-12 02:25:00,64.2,62.4,30.06,SSE,147,0.0,0.0,94,0.00,,,0.00,Wunderground v.1.15,2013-02-12 07:25:00,
2013-02-12 02:26:00,64.1,62.3,30.06,SSE,147,0.0,0.0,94,0.00,,,0.00,Wunderground v.1.15,2013-02-12 07:26:00,
2013-02-12 02:28:00,64.1,62.3,30.06,SSE,147,0.0,0.0,94,0.00,,,0.00,Wunderground v.1.15,2013-02-12 07:28:00,
2013-02-12 02:31:00,63.9,62.1,30.06,SSE,147,0.0,0.0,94,0.00,,,0.00,Wunderground v.1.15,2013-02-12 07:31:00,
2013-02-12 02:32:00,63.8,62.0,30.06,SSE,147,0.0,0.0,94,0.00,,,0.00,Wunderground v.1.15,2013-02-12 07:32:00,
2013-02-12 02:33:00,63.8,62.0,30.06,SSE,147,0.0,0.0,94,0.00,,,0.00,Wunderground v.1.15,2013-02-12 07:33:00,
2013-02-12 02:36:00,63.8,62.3,30.06,SSE,147,0.0,0.0,95,0.00,,,0.00,Wunderground v.1.15,2013-02-12 07:36:00,
2013-02-12 02:38:00,63.9,62.4,30.06,SSE,147,0.0,0.0,95,0.00,,,0.00,Wunderground v.1.15,2013-02-12 07:38:00,
2013-02-12 02:39:00,63.9,62.4,30.06,SSE,147,0.0,0.0,95,0.00,,,0.00,Wunderground v.1.15,2013-02-12 07:39:00,
2013-02-12 02:42:00,63.9,62.4,30.06,SSE,147,0.0,0.0,95,0.00,,,0.00,Wunderground v.1.15,2013-02-12 07:42:00,
2013-02-12 02:43:00,63.9,62.4,30.06,SSE,147,0.0,0.0,95,0.00,,,0.00,Wunderground v.1.15,2013-02-12 07:43:00,
2013-02-12 02:44:00,63.9,62.4,30.05,SSE,147,0.0,0.0,95,0.00,,,0.00,Wunderground v.1.15,2013-02-12 07:44:00,
2013-02-12 02:47:00,63.9,62.4,30.05,SSE,147,0.0,0.0,95,0.00,,,0.00,Wunderground v.1.15,2013-02-12 07:47:00,
2013-02-12 02:48:00,63.9,62.4,30.06,SSE,147,0.0,0.0,95,0.00,,,0.00,Wunderground v.1.15,2013-02-12 07:48:00,
2013-02-12 02:50:00,63.8,62.3,30.05,SSE,147,0.0,0.0,95,0.00,,,0.00,Wunderground v.1.15,2013-02-12 07:50:00,
2013-02-12 02:53:00,63.8,62.3,30.06,SSE,147,0.0,0.0,95,0.00,,,0.00,Wunderground v.1.15,2013-02-12 07:53:00,
2013-02-12 02:55:00,63.8,62.3,30.05,SSE,147,0.0,0.0,95,0.00,,,0.00,Wunderground v.1.15,2013-02-12 07:55:00,
2013-02-12 02:58:00,63.6,62.1,30.05,SSE,147,0.0,0.0,95,0.00,,,0.00,Wunderground v.1.15,2013-02-12 07:58:00,
2013-02-12 02:59:00,63.5,62.0,30.05,SSE,147,0.0,0.0,95,0.00,,,0.00,Wunderground v.1.15,2013-02-12 07:59:00,
2013-02-12 03:02:00,63.4,61.9,30.05,SSE,147,0.0,0.0,95,0.00,,,0.00,Wunderground v.1.15,2013-02-12 08:02:00,
2013-02-12 03:04:00,63.3,61.8,30.05,SSE,147,0.0,0.0,95,0.00,,,0.00,Wunderground v.1.15,2013-02-12 08:04:00,
2013-02-12 03:05:00,63.3,61.8,30.05,SSE,147,0.0,0.0,95,0.00,,,0.00,Wunderground v.1.15,2013-02-12 08:05:00,
2013-02-12 03:07:00,63.2,61.7,30.05,SSE,147,0.0,0.0,95,0.00,,,0.00,Wunderground v.1.15,2013-02-12 08:07:00,
2013-02-12 03:09:00,63.2,61.7,30.05,SSE,147,0.0,0.0,95,0.00,,,0.00,Wunderground v.1.15,2013-02-12 08:09:00,
2013-02-12 03:10:00,63.1,61.6,30.05,SSE,147,0.0,0.0,95,0.00,,,0.00,Wunderground v.1.15,2013-02-12 08:10:00,
2013-02-12 03:12:00,63.1,61.6,30.05,SSE,147,0.0,0.0,95,0.00,,,0.00,Wunderground v.1.15,2013-02-12 08:12:00,
2013-02-12 03:14:00,63.1,61.6,30.05,SSE,147,0.0,0.0,95,0.00,,,0.00,Wunderground v.1.15,2013-02-12 08:14:00,
2013-02-12 03:15:00,63.1,61.6,30.05,SSE,147,0.0,0.0,95,0.00,,,0.00,Wunderground v.1.15,2013-02-12 08:15:00,
2013-02-12 03:17:00,63.2,61.7,30.05,SSE,147,0.0,0.0,95,0.00,,,0.00,Wunderground v.1.15,2013-02-12 08:17:00,
2013-02-12 03:19:00,63.5,62.3,30.05,SSE,147,0.0,0.0,96,0.00,,,0.00,Wunderground v.1.15,2013-02-12 08:19:00,
2013-02-12 03:20:00,63.5,62.3,30.05,SSE,147,0.0,0.0,96,0.00,,,0.00,Wunderground v.1.15,2013-02-12 08:20:00,
2013-02-12 03:21:00,63.6,62.4,30.05,SSE,147,0.0,0.0,96,0.00,,,0.00,Wunderground v.1.15,2013-02-12 08:21:00,
2013-02-12 03:22:00,63.6,62.4,30.05,SSE,147,0.0,0.0,96,0.00,,,0.00,Wunderground v.1.15,2013-02-12 08:22:00,
2013-02-12 03:25:00,63.7,62.5,30.05,SSE,147,0.0,0.0,96,0.00,,,0.01,Wunderground v.1.15,2013-02-12 08:25:00,
2013-02-12 03:26:00,63.6,62.4,30.05,SSE,147,0.0,0.0,96,0.00,,,0.01,Wunderground v.1.15,2013-02-12 08:26:00,
2013-02-12 03:27:00,63.6,62.4,30.05,SSE,147,0.0,0.0,96,0.00,,,0.01,Wunderground v.1.15,2013-02-12 08:27:00,
2013-02-12 03:30:00,63.7,62.5,30.05,SSE,147,0.0,0.0,96,0.13,,,0.02,Wunderground v.1.15,2013-02-12 08:30:00,
2013-02-12 03:32:00,63.8,62.6,30.05,SSE,147,0.0,0.0,96,0.13,,,0.02,Wunderground v.1.15,2013-02-12 08:32:00,
2013-02-12 03:33:00,63.8,62.6,30.05,SSE,147,0.0,0.0,96,0.11,,,0.02,Wunderground v.1.15,2013-02-12 08:33:00,
2013-02-12 03:35:00,63.6,62.4,30.05,SSE,147,0.0,0.0,96,0.08,,,0.02,Wunderground v.1.15,2013-02-12 08:35:00,
2013-02-12 03:37:00,63.5,62.0,30.05,SSE,147,0.0,0.0,95,0.06,,,0.02,Wunderground v.1.15,2013-02-12 08:37:00,
2013-02-12 03:38:00,63.4,61.9,30.05,SSE,147,0.0,0.0,95,0.06,,,0.02,Wunderground v.1.15,2013-02-12 08:38:00,
2013-02-12 03:40:00,63.2,62.0,30.05,SSE,147,0.0,0.0,96,0.05,,,0.02,Wunderground v.1.15,2013-02-12 08:40:00,
2013-02-12 03:42:00,63.2,62.0,30.05,SSE,147,0.0,0.0,96,0.04,,,0.02,Wunderground v.1.15,2013-02-12 08:42:00,
2013-02-12 03:43:00,63.3,62.1,30.05,SSE,147,0.0,0.0,96,0.04,,,0.02,Wunderground v.1.15,2013-02-12 08:43:00,
2013-02-12 03:45:00,63.3,62.1,30.05,SSE,147,0.0,0.0,96,0.00,,,0.02,Wunderground v.1.15,2013-02-12 08:45:00,
2013-02-12 03:48:00,63.3,62.1,30.05,SSE,147,0.0,0.0,96,0.00,,,0.02,Wunderground v.1.15,2013-02-12 08:48:00,
2013-02-12 03:49:00,63.4,62.2,30.05,SSE,147,0.0,0.0,96,0.00,,,0.02,Wunderground v.1.15,2013-02-12 08:49:00,
2013-02-12 03:50:00,63.4,62.2,30.05,SSE,147,0.0,0.0,96,0.00,,,0.02,Wunderground v.1.15,2013-02-12 08:50:00,
2013-02-12 03:54:00,63.4,62.2,30.05,SSE,147,0.0,0.0,96,0.00,,,0.02,Wunderground v.1.15,2013-02-12 08:54:00,
2013-02-12 03:55:00,63.4,62.2,30.05,SSE,147,0.0,0.0,96,0.00,,,0.02,Wunderground v.1.15,2013-02-12 08:55:00,
2013-02-12 03:59:00,63.2,62.0,30.05,SSE,147,0.0,0.0,96,0.00,,,0.02,Wunderground v.1.15,2013-02-12 08:59:00,
2013-02-12 04:01:00,63.1,61.9,30.05,SSE,147,0.0,0.0,96,0.00,,,0.02,Wunderground v.1.15,2013-02-12 09:01:00,
2013-02-12 04:04:00,63.2,62.0,30.04,SSE,147,0.0,0.0,96,0.00,,,0.02,Wunderground v.1.15,2013-02-12 09:04:00,
2013-02-12 04:05:00,63.2,62.0,30.04,SSE,147,0.0,0.0,96,0.00,,,0.02,Wunderground v.1.15,2013-02-12 09:05:00,
2013-02-12 04:06:00,63.2,62.0,30.04,SSE,147,0.0,0.0,96,0.00,,,0.02,Wunderground v.1.15,2013-02-12 09:06:00,
2013-02-12 04:09:00,63.2,62.0,30.05,SSE,147,0.0,0.0,96,0.00,,,0.02,Wunderground v.1.15,2013-02-12 09:09:00,
2013-02-12 04:11:00,63.1,61.9,30.05,SSE,147,0.0,0.0,96,0.00,,,0.02,Wunderground v.1.15,2013-02-12 09:11:00,
2013-02-12 04:12:00,63.0,61.8,30.04,SSE,147,0.0,0.0,96,0.00,,,0.02,Wunderground v.1.15,2013-02-12 09:12:00,
2013-02-12 04:14:00,63.0,61.8,30.04,SSE,147,0.0,0.0,96,0.00,,,0.02,Wunderground v.1.15,2013-02-12 09:14:00,
2013-02-12 04:15:00,63.0,61.8,30.04,SSE,147,0.0,0.0,96,0.00,,,0.02,Wunderground v.1.15,2013-02-12 09:15:00,
2013-02-12 04:16:00,63.0,61.8,30.05,SSE,147,0.0,0.0,96,0.00,,,0.02,Wunderground v.1.15,2013-02-12 09:16:00,
2013-02-12 04:17:00,62.9,61.7,30.05,SSE,147,0.0,0.0,96,0.00,,,0.02,Wunderground v.1.15,2013-02-12 09:17:00,
2013-02-12 04:20:00,62.9,61.7,30.05,SSE,147,0.0,0.0,96,0.00,,,0.02,Wunderground v.1.15,2013-02-12 09:20:00,
2013-02-12 04:21:00,62.9,61.7,30.05,SSE,147,0.0,0.0,96,0.00,,,0.02,Wunderground v.1.15,2013-02-12 09:21:00,
2013-02-12 04:22:00,62.8,61.6,30.05,SSE,147,0.0,0.0,96,0.00,,,0.02,Wunderground v.1.15,2013-02-12 09:22:00,
2013-02-12 04:25:00,62.7,61.5,30.05,SSE,147,0.0,0.0,96,0.00,,,0.02,Wunderground v.1.15,2013-02-12 09:25:00,
2013-02-12 04:26:00,62.6,61.4,30.05,SSE,147,0.0,0.0,96,0.00,,,0.02,Wunderground v.1.15,2013-02-12 09:26:00,
2013-02-12 04:27:00,62.5,61.3,30.05,SSE,147,0.0,0.0,96,0.00,,,0.02,Wunderground v.1.15,2013-02-12 09:27:00,
2013-02-12 04:28:00,62.5,61.3,30.05,SSE,147,0.0,0.0,96,0.00,,,0.02,Wunderground v.1.15,2013-02-12 09:28:00,
2013-02-12 04:30:00,62.4,61.2,30.05,SSE,147,0.0,0.0,96,0.00,,,0.02,Wunderground v.1.15,2013-02-12 09:30:00,
2013-02-12 04:32:00,62.4,61.2,30.05,SSE,147,0.0,0.0,96,0.00,,,0.02,Wunderground v.1.15,2013-02-12 09:32:00,
2013-02-12 04:34:00,62.3,61.1,30.05,SSE,147,0.0,0.0,96,0.00,,,0.02,Wunderground v.1.15,2013-02-12 09:34:00,
2013-02-12 04:35:00,62.2,61.0,30.05,SSE,147,0.0,0.0,96,0.00,,,0.02,Wunderground v.1.15,2013-02-12 09:35:00,
2013-02-12 04:37:00,62.3,61.1,30.05,SSE,147,0.0,0.0,96,0.00,,,0.02,Wunderground v.1.15,2013-02-12 09:37:00,
2013-02-12 04:38:00,62.4,61.2,30.05,SSE,147,0.0,0.0,96,0.00,,,0.02,Wunderground v.1.15,2013-02-12 09:38:00,
2013-02-12 04:39:00,62.4,61.2,30.05,SSE,147,0.0,0.0,96,0.00,,,0.02,Wunderground v.1.15,2013-02-12 09:39:00,
2013-02-12 04:41:00,62.5,61.3,30.05,SSE,147,0.0,0.0,96,0.00,,,0.02,Wunderground v.1.15,2013-02-12 09:41:00,
2013-02-12 04:42:00,62.5,61.3,30.05,SSE,147,0.0,0.0,96,0.00,,,0.02,Wunderground v.1.15,2013-02-12 09:42:00,
2013-02-12 04:44:00,62.6,61.4,30.05,SSE,147,0.0,0.0,96,0.00,,,0.02,Wunderground v.1.15,2013-02-12 09:44:00,
2013-02-12 04:46:00,62.8,61.6,30.05,SSE,147,0.0,0.0,96,0.00,,,0.02,Wunderground v.1.15,2013-02-12 09:46:00,
2013-02-12 04:47:00,62.8,61.6,30.05,SSE,147,0.0,0.0,96,0.00,,,0.02,Wunderground v.1.15,2013-02-12 09:47:00,
2013-02-12 04:49:00,62.9,61.7,30.05,SSE,147,0.0,0.0,96,0.00,,,0.02,Wunderground v.1.15,2013-02-12 09:49:00,
2013-02-12 04:50:00,62.9,61.7,30.05,SSE,147,0.0,0.0,96,0.00,,,0.02,Wunderground v.1.15,2013-02-12 09:50:00,
2013-02-12 04:52:00,62.9,61.7,30.05,SSE,147,0.0,0.0,96,0.00,,,0.02,Wunderground v.1.15,2013-02-12 09:52:00,
2013-02-12 04:54:00,62.9,61.7,30.05,SSE,147,0.0,0.0,96,0.00,,,0.02,Wunderground v.1.15,2013-02-12 09:54:00,
2013-02-12 04:56:00,62.9,61.7,30.05,SSE,147,0.0,0.0,96,0.00,,,0.02,Wunderground v.1.15,2013-02-12 09:56:00,
2013-02-12 04:58:00,62.9,61.7,30.06,SSE,147,0.0,0.0,96,0.00,,,0.02,Wunderground v.1.15,2013-02-12 09:58:00,
2013-02-12 05:00:00,62.8,61.6,30.05,SSE,147,0.0,0.0,96,0.00,,,0.02,Wunderground v.1.15,2013-02-12 10:00:00,
2013-02-12 05:01:00,62.8,61.6,30.05,SSE,147,0.0,0.0,96,0.00,,,0.02,Wunderground v.1.15,2013-02-12 10:01:00,
2013-02-12 05:03:00,62.7,61.5,30.05,SSE,147,0.0,0.0,96,0.00,,,0.02,Wunderground v.1.15,2013-02-12 10:03:00,
2013-02-12 05:05:00,62.7,61.5,30.05,SSE,147,0.0,0.0,96,0.00,,,0.02,Wunderground v.1.15,2013-02-12 10:05:00,
2013-02-12 05:07:00,62.7,61.5,30.05,SSE,147,0.0,0.0,96,0.00,,,0.02,Wunderground v.1.15,2013-02-12 10:07:00,
2013-02-12 05:08:00,62.6,61.4,30.05,SSE,147,0.0,0.0,96,0.00,,,0.02,Wunderground v.1.15,2013-02-12 10:08:00,
2013-02-12 05:10:00,62.6,61.4,30.05,SSE,147,0.0,0.0,96,0.00,,,0.02,Wunderground v.1.15,2013-02-12 10:10:00,
2013-02-12 05:12:00,62.7,61.5,30.05,SSE,147,0.0,0.0,96,0.00,,,0.02,Wunderground v.1.15,2013-02-12 10:12:00,
2013-02-12 05:13:00,62.7,61.8,30.05,SSE,147,0.0,0.0,97,0.00,,,0.02,Wunderground v.1.15,2013-02-12 10:13:00,
2013-02-12 05:14:00,62.7,61.8,30.05,SSE,147,0.0,0.0,97,0.00,,,0.02,Wunderground v.1.15,2013-02-12 10:14:00,
2013-02-12 05:16:00,62.7,61.5,30.05,SSE,147,0.0,0.0,96,0.00,,,0.02,Wunderground v.1.15,2013-02-12 10:16:00,
2013-02-12 05:18:00,62.5,61.3,30.05,SSE,147,0.0,0.0,96,0.00,,,0.02,Wunderground v.1.15,2013-02-12 10:18:00,
2013-02-12 05:19:00,62.5,61.3,30.05,SSE,147,0.0,0.0,96,0.00,,,0.02,Wunderground v.1.15,2013-02-12 10:19:00,
2013-02-12 05:21:00,62.3,61.1,30.05,SSE,147,0.0,0.0,96,0.00,,,0.02,Wunderground v.1.15,2013-02-12 10:21:00,
2013-02-12 05:23:00,62.1,60.9,30.05,SSE,147,0.0,0.0,96,0.00,,,0.02,Wunderground v.1.15,2013-02-12 10:23:00,
2013-02-12 05:24:00,62.1,60.9,30.05,SSE,147,0.0,0.0,96,0.00,,,0.02,Wunderground v.1.15,2013-02-12 10:24:00,
2013-02-12 05:26:00,62.1,60.9,30.05,SSE,147,0.0,0.0,96,0.00,,,0.02,Wunderground v.1.15,2013-02-12 10:26:00,
2013-02-12 05:28:00,62.1,60.9,30.05,SSE,147,0.0,0.0,96,0.00,,,0.02,Wunderground v.1.15,2013-02-12 10:28:00,
2013-02-12 05:29:00,62.1,60.9,30.05,SSE,147,0.0,0.0,96,0.00,,,0.02,Wunderground v.1.15,2013-02-12 10:29:00,
2013-02-12 05:32:00,62.1,60.9,30.05,SSE,147,0.0,0.0,96,0.00,,,0.02,Wunderground v.1.15,2013-02-12 10:32:00,
2013-02-12 05:34:00,62.1,60.9,30.05,SSE,147,0.0,0.0,96,0.00,,,0.02,Wunderground v.1.15,2013-02-12 10:34:00,
2013-02-12 05:35:00,62.1,60.9,30.05,SSE,147,0.0,0.0,96,0.00,,,0.02,Wunderground v.1.15,2013-02-12 10:35:00,
2013-02-12 05:37:00,62.1,61.2,30.05,SSE,147,0.0,0.0,97,0.00,,,0.02,Wunderground v.1.15,2013-02-12 10:37:00,
2013-02-12 05:39:00,62.1,61.2,30.05,SSE,147,0.0,0.0,97,0.00,,,0.02,Wunderground v.1.15,2013-02-12 10:39:00,
2013-02-12 05:40:00,62.1,61.2,30.05,SSE,147,0.0,0.0,97,0.00,,,0.02,Wunderground v.1.15,2013-02-12 10:40:00,
2013-02-12 05:43:00,62.2,61.0,30.05,SSE,147,0.0,0.0,96,0.00,,,0.02,Wunderground v.1.15,2013-02-12 10:43:00,
2013-02-12 05:45:00,62.1,61.2,30.05,SSE,147,0.0,0.0,97,0.00,,,0.02,Wunderground v.1.15,2013-02-12 10:45:00,
2013-02-12 05:46:00,62.1,61.2,30.05,SSE,147,0.0,0.0,97,0.00,,,0.02,Wunderground v.1.15,2013-02-12 10:46:00,
2013-02-12 05:49:00,62.2,61.3,30.05,SSE,147,0.0,0.0,97,0.00,,,0.02,Wunderground v.1.15,2013-02-12 10:49:00,
2013-02-12 05:50:00,62.2,61.3,30.05,SSE,147,0.0,0.0,97,0.00,,,0.02,Wunderground v.1.15,2013-02-12 10:50:00,
2013-02-12 05:51:00,62.2,61.0,30.05,SSE,147,0.0,0.0,96,0.00,,,0.02,Wunderground v.1.15,2013-02-12 10:51:00,
2013-02-12 05:54:00,62.2,61.3,30.05,SSE,147,0.0,0.0,97,0.00,,,0.02,Wunderground v.1.15,2013-02-12 10:54:00,
2013-02-12 05:55:00,62.2,61.3,30.05,SSE,147,0.0,0.0,97,0.00,,,0.02,Wunderground v.1.15,2013-02-12 10:55:00,
2013-02-12 05:56:00,62.2,61.3,30.05,SSE,147,0.0,0.0,97,0.00,,,0.02,Wunderground v.1.15,2013-02-12 10:56:00,
2013-02-12 05:57:00,62.2,61.3,30.05,SSE,147,0.0,0.0,97,0.00,,,0.02,Wunderground v.1.15,2013-02-12 10:57:00,
2013-02-12 06:00:00,62.2,61.3,30.05,SSE,147,0.0,0.0,97,0.00,,,0.02,Wunderground v.1.15,2013-02-12 11:00:00,
2013-02-12 06:01:00,62.2,61.3,30.05,SSE,147,0.0,0.0,97,0.00,,,0.02,Wunderground v.1.15,2013-02-12 11:01:00,
2013-02-12 06:04:00,62.2,61.3,30.05,SSE,147,0.0,0.0,97,0.00,,,0.02,Wunderground v.1.15,2013-02-12 11:04:00,
2013-02-12 06:05:00,62.2,61.3,30.05,SSE,147,0.0,0.0,97,0.00,,,0.02,Wunderground v.1.15,2013-02-12 11:05:00,
2013-02-12 06:06:00,62.3,61.4,30.05,SSE,147,0.0,0.0,97,0.00,,,0.02,Wunderground v.1.15,2013-02-12 11:06:00,
2013-02-12 06:09:00,62.8,61.9,30.05,SSE,147,0.0,0.0,97,0.00,,,0.02,Wunderground v.1.15,2013-02-12 11:09:00,
2013-02-12 06:10:00,62.8,61.9,30.05,SSE,147,0.0,0.0,97,0.00,,,0.02,Wunderground v.1.15,2013-02-12 11:10:00,
2013-02-12 06:11:00,62.8,61.9,30.05,SSE,147,0.0,0.0,97,0.00,,,0.02,Wunderground v.1.15,2013-02-12 11:11:00,
2013-02-12 06:12:00,62.8,61.9,30.05,SSE,147,0.0,0.0,97,0.00,,,0.02,Wunderground v.1.15,2013-02-12 11:12:00,
2013-02-12 06:14:00,62.9,62.0,30.05,SSE,147,0.0,0.0,97,0.00,,,0.02,Wunderground v.1.15,2013-02-12 11:14:00,
2013-02-12 06:15:00,63.0,62.1,30.05,SSE,147,0.0,0.0,97,0.00,,,0.02,Wunderground v.1.15,2013-02-12 11:15:00,
2013-02-12 06:16:00,63.2,62.3,30.05,SSE,147,0.0,0.0,97,0.00,,,0.02,Wunderground v.1.15,2013-02-12 11:16:00,
2013-02-12 06:17:00,63.3,62.4,30.05,SSE,147,0.0,0.0,97,0.00,,,0.02,Wunderground v.1.15,2013-02-12 11:17:00,
2013-02-12 06:20:00,63.3,62.4,30.05,SSE,147,0.0,0.0,97,0.00,,,0.02,Wunderground v.1.15,2013-02-12 11:20:00,
2013-02-12 06:22:00,63.2,62.3,30.05,SSE,147,0.0,0.0,97,0.00,,,0.02,Wunderground v.1.15,2013-02-12 11:22:00,
2013-02-12 06:23:00,63.2,62.3,30.05,SSE,147,0.0,0.0,97,0.00,,,0.02,Wunderground v.1.15,2013-02-12 11:23:00,
2013-02-12 06:25:00,63.1,62.2,30.05,SSE,147,0.0,0.0,97,0.00,,,0.02,Wunderground v.1.15,2013-02-12 11:25:00,
2013-02-12 06:26:00,63.1,62.2,30.05,SSE,147,0.0,0.0,97,0.00,,,0.02,Wunderground v.1.15,2013-02-12 11:26:00,
2013-02-12 06:27:00,63.0,62.1,30.05,SSE,147,0.0,0.0,97,0.00,,,0.02,Wunderground v.1.15,2013-02-12 11:27:00,
2013-02-12 06:29:00,62.7,61.8,30.05,SSE,147,0.0,0.0,97,0.00,,,0.02,Wunderground v.1.15,2013-02-12 11:29:00,
2013-02-12 06:30:00,62.7,61.8,30.05,SSE,147,0.0,0.0,97,0.00,,,0.02,Wunderground v.1.15,2013-02-12 11:30:00,
2013-02-12 06:31:00,62.7,61.8,30.05,SSE,147,0.0,0.0,97,0.00,,,0.02,Wunderground v.1.15,2013-02-12 11:31:00,
2013-02-12 06:32:00,62.7,61.8,30.05,SSE,147,0.0,0.0,97,0.00,,,0.02,Wunderground v.1.15,2013-02-12 11:32:00,
2013-02-12 06:34:00,62.8,61.9,30.05,SSE,147,0.0,0.0,97,0.00,,,0.02,Wunderground v.1.15,2013-02-12 11:34:00,
2013-02-12 06:37:00,62.8,61.9,30.05,SSE,147,0.0,0.0,97,0.00,,,0.02,Wunderground v.1.15,2013-02-12 11:37:00,
2013-02-12 06:38:00,62.7,61.8,30.05,SSE,147,0.0,0.0,97,0.00,,,0.02,Wunderground v.1.15,2013-02-12 11:38:00,
2013-02-12 06:40:00,62.6,61.7,30.05,SSE,147,0.0,0.0,97,0.00,,,0.02,Wunderground v.1.15,2013-02-12 11:40:00,
2013-02-12 06:42:00,62.5,61.6,30.05,SSE,147,0.0,0.0,97,0.00,,,0.02,Wunderground v.1.15,2013-02-12 11:42:00,
2013-02-12 06:43:00,62.5,61.6,30.05,SSE,147,0.0,0.0,97,0.00,,,0.02,Wunderground v.1.15,2013-02-12 11:43:00,
2013-02-12 06:45:00,62.5,61.6,30.05,SSE,147,0.0,0.0,97,0.00,,,0.02,Wunderground v.1.15,2013-02-12 11:45:00,
2013-02-12 06:48:00,62.5,61.6,30.05,SSE,147,0.0,0.0,97,0.00,,,0.02,Wunderground v.1.15,2013-02-12 11:48:00,
2013-02-12 06:49:00,62.5,61.6,30.06,SSE,147,0.0,0.0,97,0.00,,,0.02,Wunderground v.1.15,2013-02-12 11:49:00,
2013-02-12 06:50:00,62.6,61.7,30.05,SSE,147,0.0,0.0,97,0.00,,,0.02,Wunderground v.1.15,2013-02-12 11:50:00,
2013-02-12 06:53:00,62.7,61.8,30.06,SSE,147,0.0,0.0,97,0.00,,,0.02,Wunderground v.1.15,2013-02-12 11:53:00,
2013-02-12 06:54:00,62.8,61.9,30.05,SSE,147,0.0,0.0,97,0.00,,,0.02,Wunderground v.1.15,2013-02-12 11:54:00,
2013-02-12 06:55:00,62.8,61.9,30.06,SSE,147,0.0,0.0,97,0.00,,,0.02,Wunderground v.1.15,2013-02-12 11:55:00,
2013-02-12 06:58:00,62.8,61.9,30.06,SSE,147,0.0,0.0,97,0.00,,,0.02,Wunderground v.1.15,2013-02-12 11:58:00,
2013-02-12 06:59:00,62.8,61.9,30.06,SSE,147,0.0,0.0,97,0.00,,,0.02,Wunderground v.1.15,2013-02-12 11:59:00,
2013-02-12 07:00:00,62.8,61.9,30.06,SSE,147,0.0,0.0,97,0.00,,,0.02,Wunderground v.1.15,2013-02-12 12:00:00,
2013-02-12 07:01:00,62.8,61.9,30.06,SSE,147,0.0,0.0,97,0.00,,,0.02,Wunderground v.1.15,2013-02-12 12:01:00,
2013-02-12 07:03:00,63.0,62.1,30.06,SSE,147,0.0,0.0,97,0.00,,,0.02,Wunderground v.1.15,2013-02-12 12:03:00,
2013-02-12 07:04:00,63.0,62.1,30.05,SSE,147,0.0,0.0,97,0.00,,,0.02,Wunderground v.1.15,2013-02-12 12:04:00,
2013-02-12 07:06:00,63.1,62.2,30.06,SSE,147,0.0,0.0,97,0.00,,,0.02,Wunderground v.1.15,2013-02-12 12:06:00,
2013-02-12 07:09:00,63.0,62.1,30.06,SSE,147,0.0,0.0,97,0.00,,,0.02,Wunderground v.1.15,2013-02-12 12:09:00,
2013-02-12 07:11:00,63.0,62.1,30.06,SSE,147,0.0,0.0,97,0.00,,,0.02,Wunderground v.1.15,2013-02-12 12:11:00,
2013-02-12 07:13:00,63.1,62.2,30.05,SSE,147,0.0,0.0,97,0.00,,,0.02,Wunderground v.1.15,2013-02-12 12:13:00,
2013-02-12 07:14:00,63.1,62.2,30.06,SSE,147,0.0,0.0,97,0.00,,,0.02,Wunderground v.1.15,2013-02-12 12:14:00,
2013-02-12 07:15:00,63.2,62.3,30.06,SSE,147,0.0,0.0,97,0.00,,,0.02,Wunderground v.1.15,2013-02-12 12:15:00,
2013-02-12 07:16:00,63.3,62.4,30.06,SSE,147,0.0,0.0,97,0.00,,,0.02,Wunderground v.1.15,2013-02-12 12:16:00,
2013-02-12 07:19:00,63.5,62.6,30.05,SSE,147,0.0,0.0,97,0.00,,,0.02,Wunderground v.1.15,2013-02-12 12:19:00,
2013-02-12 07:20:00,63.6,62.7,30.06,SSE,147,0.0,0.0,97,0.00,,,0.02,Wunderground v.1.15,2013-02-12 12:20:00,
2013-02-12 07:21:00,63.6,62.7,30.06,SSE,147,0.0,0.0,97,0.00,,,0.02,Wunderground v.1.15,2013-02-12 12:21:00,
2013-02-12 07:22:00,63.7,62.8,30.06,SSE,147,0.0,0.0,97,0.00,,,0.02,Wunderground v.1.15,2013-02-12 12:22:00,
2013-02-12 07:25:00,63.8,62.9,30.06,SSE,147,0.0,0.0,97,0.00,,,0.02,Wunderground v.1.15,2013-02-12 12:25:00,
2013-02-12 07:26:00,63.8,62.9,30.06,SSE,147,0.0,0.0,97,0.00,,,0.02,Wunderground v.1.15,2013-02-12 12:26:00,
2013-02-12 07:27:00,63.9,63.0,30.06,SSE,147,0.0,0.0,97,0.00,,,0.02,Wunderground v.1.15,2013-02-12 12:27:00,
2013-02-12 07:30:00,64.1,63.2,30.06,SSE,147,0.0,0.0,97,0.00,,,0.02,Wunderground v.1.15,2013-02-12 12:30:00,
2013-02-12 07:31:00,64.1,63.2,30.06,SSE,147,0.0,0.0,97,0.00,,,0.02,Wunderground v.1.15,2013-02-12 12:31:00,
2013-02-12 07:32:00,64.1,63.2,30.06,SSE,147,0.0,0.0,97,0.00,,,0.02,Wunderground v.1.15,2013-02-12 12:32:00,
2013-02-12 07:33:00,64.2,63.3,30.06,SSE,147,0.0,0.0,97,0.00,,,0.02,Wunderground v.1.15,2013-02-12 12:33:00,
2013-02-12 07:35:00,64.3,63.4,30.06,SSE,147,0.0,0.0,97,0.00,,,0.02,Wunderground v.1.15,2013-02-12 12:35:00,
2013-02-12 07:36:00,64.4,63.5,30.06,SSE,147,0.0,0.0,97,0.00,,,0.02,Wunderground v.1.15,2013-02-12 12:36:00,
2013-02-12 07:37:00,64.4,63.5,30.06,SSE,147,0.0,0.0,97,0.00,,,0.02,Wunderground v.1.15,2013-02-12 12:37:00,
2013-02-12 07:38:00,64.5,63.6,30.06,SSE,147,0.0,0.0,97,0.00,,,0.02,Wunderground v.1.15,2013-02-12 12:38:00,
2013-02-12 07:40:00,64.7,63.8,30.06,SSE,147,0.0,0.0,97,0.00,,,0.02,Wunderground v.1.15,2013-02-12 12:40:00,
2013-02-12 07:41:00,64.8,63.9,30.06,SSE,147,0.0,0.0,97,0.00,,,0.02,Wunderground v.1.15,2013-02-12 12:41:00,
2013-02-12 07:42:00,64.9,64.0,30.06,SSE,147,0.0,0.0,97,0.00,,,0.02,Wunderground v.1.15,2013-02-12 12:42:00,
2013-02-12 07:44:00,65.1,64.2,30.06,SSE,147,0.0,0.0,97,0.00,,,0.02,Wunderground v.1.15,2013-02-12 12:44:00,
2013-02-12 07:46:00,65.5,64.6,30.06,SSE,147,0.0,0.0,97,0.00,,,0.02,Wunderground v.1.15,2013-02-12 12:46:00,
2013-02-12 07:47:00,65.7,64.8,30.06,SSE,147,0.0,0.0,97,0.00,,,0.02,Wunderground v.1.15,2013-02-12 12:47:00,
2013-02-12 07:49:00,65.8,64.9,30.06,SSE,147,0.0,0.0,97,0.00,,,0.02,Wunderground v.1.15,2013-02-12 12:49:00,
2013-02-12 07:51:00,66.3,65.4,30.06,SSE,147,0.0,0.0,97,0.00,,,0.02,Wunderground v.1.15,2013-02-12 12:51:00,
2013-02-12 07:52:00,66.3,65.4,30.06,SSE,147,0.0,0.0,97,0.00,,,0.02,Wunderground v.1.15,2013-02-12 12:52:00,
2013-02-12 07:54:00,66.6,66.0,30.06,SSE,147,0.0,0.0,98,0.00,,,0.02,Wunderground v.1.15,2013-02-12 12:54:00,
2013-02-12 07:57:00,66.9,66.3,30.06,SSE,147,0.0,0.0,98,0.00,,,0.02,Wunderground v.1.15,2013-02-12 12:57:00,
2013-02-12 07:59:00,67.1,66.2,30.06,SSE,147,0.0,0.0,97,0.00,,,0.02,Wunderground v.1.15,2013-02-12 12:59:00,
2013-02-12 08:00:00,67.2,66.6,30.06,SSE,147,0.0,0.0,98,0.00,,,0.02,Wunderground v.1.15,2013-02-12 13:00:00,
2013-02-12 08:02:00,67.5,66.9,30.06,SSE,147,0.0,0.0,98,0.00,,,0.02,Wunderground v.1.15,2013-02-12 13:02:00,
2013-02-12 08:04:00,67.7,66.8,30.06,SSE,147,0.0,0.0,97,0.00,,,0.02,Wunderground v.1.15,2013-02-12 13:04:00,
2013-02-12 08:06:00,67.8,66.9,30.06,SSE,147,0.0,0.0,97,0.00,,,0.02,Wunderground v.1.15,2013-02-12 13:06:00,
2013-02-12 08:07:00,68.0,67.4,30.06,SSE,147,0.0,0.0,98,0.00,,,0.02,Wunderground v.1.15,2013-02-12 13:07:00,
2013-02-12 08:09:00,68.2,67.3,30.06,SSE,147,0.0,0.0,97,0.00,,,0.02,Wunderground v.1.15,2013-02-12 13:09:00,
2013-02-12 08:10:00,68.2,67.3,30.06,SSE,147,0.0,0.0,97,0.00,,,0.02,Wunderground v.1.15,2013-02-12 13:10:00,
2013-02-12 08:11:00,68.3,67.4,30.06,SSE,147,0.0,0.0,97,0.00,,,0.02,Wunderground v.1.15,2013-02-12 13:11:00,
2013-02-12 08:12:00,68.4,67.5,30.06,SSE,147,0.0,0.0,97,0.00,,,0.02,Wunderground v.1.15,2013-02-12 13:12:00,
2013-02-12 08:14:00,68.7,67.8,30.06,SSE,147,0.0,0.0,97,0.00,,,0.02,Wunderground v.1.15,2013-02-12 13:14:00,
2013-02-12 08:15:00,68.8,67.9,30.06,SSE,147,0.0,1.0,97,0.00,,,0.02,Wunderground v.1.15,2013-02-12 13:15:00,
2013-02-12 08:16:00,68.9,68.0,30.06,SSE,147,0.0,1.0,97,0.00,,,0.02,Wunderground v.1.15,2013-02-12 13:16:00,
2013-02-12 08:20:00,69.3,68.4,30.07,SSE,147,0.0,0.0,97,0.00,,,0.02,Wunderground v.1.15,2013-02-12 13:20:00,
2013-02-12 08:21:00,69.4,68.5,30.07,SSE,147,0.0,0.0,97,0.00,,,0.02,Wunderground v.1.15,2013-02-12 13:21:00,
2013-02-12 08:22:00,69.5,68.3,30.07,SSE,147,0.0,0.0,96,0.00,,,0.02,Wunderground v.1.15,2013-02-12 13:22:00,
2013-02-12 08:25:00,70.0,68.8,30.07,SSE,147,0.0,0.0,96,0.00,,,0.02,Wunderground v.1.15,2013-02-12 13:25:00,
2013-02-12 08:26:00,70.1,68.9,30.07,SSE,147,1.0,2.0,96,0.00,,,0.02,Wunderground v.1.15,2013-02-12 13:26:00,
2013-02-12 08:27:00,70.1,68.9,30.07,SSE,147,0.0,2.0,96,0.00,,,0.02,Wunderground v.1.15,2013-02-12 13:27:00,
2013-02-12 08:30:00,70.6,69.1,30.07,SSE,147,0.0,0.0,95,0.00,,,0.02,Wunderground v.1.15,2013-02-12 13:30:00,
2013-02-12 08:31:00,70.7,69.2,30.07,SSE,147,0.0,0.0,95,0.00,,,0.02,Wunderground v.1.15,2013-02-12 13:31:00,
2013-02-12 08:32:00,70.8,69.0,30.07,SSE,147,0.0,0.0,94,0.00,,,0.02,Wunderground v.1.15,2013-02-12 13:32:00,
2013-02-12 08:36:00,71.3,69.2,30.07,SSE,147,0.0,3.0,93,0.00,,,0.02,Wunderground v.1.15,2013-02-12 13:36:00,
2013-02-12 08:37:00,71.4,69.3,30.07,SSE,147,0.0,3.0,93,0.00,,,0.02,Wunderground v.1.15,2013-02-12 13:37:00,
2013-02-12 08:41:00,72.0,69.5,30.07,SSE,147,0.0,1.0,92,0.00,,,0.02,Wunderground v.1.15,2013-02-12 13:41:00,
2013-02-12 08:42:00,72.1,69.6,30.07,SSE,147,0.0,1.0,92,0.00,,,0.02,Wunderground v.1.15,2013-02-12 13:42:00,
2013-02-12 08:47:00,72.7,69.6,30.07,South,171,0.0,5.0,90,0.00,,,0.02,Wunderground v.1.15,2013-02-12 13:47:00,
2013-02-12 08:48:00,72.8,69.7,30.07,South,171,4.0,5.0,90,0.00,,,0.02,Wunderground v.1.15,2013-02-12 13:48:00,
2013-02-12 08:49:00,72.9,69.8,30.07,South,171,0.0,5.0,90,0.00,,,0.02,Wunderground v.1.15,2013-02-12 13:49:00,
2013-02-12 08:53:00,73.4,69.6,30.07,South,169,1.0,4.0,88,0.00,,,0.02,Wunderground v.1.15,2013-02-12 13:53:00,
2013-02-12 08:54:00,73.5,69.7,30.07,South,169,0.0,4.0,88,0.00,,,0.02,Wunderground v.1.15,2013-02-12 13:54:00,
2013-02-12 08:58:00,73.9,69.8,30.07,SSE,159,7.0,7.0,87,0.00,,,0.02,Wunderground v.1.15,2013-02-12 13:58:00,
2013-02-12 08:59:00,74.0,69.5,30.07,SSE,161,6.0,7.0,86,0.00,,,0.02,Wunderground v.1.15,2013-02-12 13:59:00,
2013-02-12 09:03:00,74.0,69.5,30.07,SSE,164,4.0,8.0,86,0.00,,,0.02,Wunderground v.1.15,2013-02-12 14:03:00,
2013-02-12 09:04:00,74.1,69.6,30.07,South,169,1.0,8.0,86,0.00,,,0.02,Wunderground v.1.15,2013-02-12 14:04:00,
2013-02-12 09:05:00,74.2,69.7,30.07,South,171,1.0,8.0,86,0.00,,,0.02,Wunderground v.1.15,2013-02-12 14:05:00,
2013-02-12 09:08:00,74.4,69.6,30.07,South,175,0.0,8.0,85,0.00,,,0.02,Wunderground v.1.15,2013-02-12 14:08:00,
2013-02-12 09:09:00,74.4,69.6,30.07,South,177,1.0,8.0,85,0.00,,,0.02,Wunderground v.1.15,2013-02-12 14:09:00,
2013-02-12 09:10:00,74.4,69.6,30.07,South,172,5.0,5.0,85,0.00,,,0.02,Wunderground v.1.15,2013-02-12 14:10:00,
2013-02-12 09:14:00,74.5,69.3,30.07,SSE,150,5.0,6.0,84,0.00,,,0.02,Wunderground v.1.15,2013-02-12 14:14:00,
2013-02-12 09:15:00,74.5,69.3,30.07,SSE,152,6.0,6.0,84,0.00,,,0.02,Wunderground v.1.15,2013-02-12 14:15:00,
2013-02-12 09:16:00,74.5,69.3,30.07,SSE,148,4.0,6.0,84,0.00,,,0.02,Wunderground v.1.15,2013-02-12 14:16:00,
2013-02-12 09:19:00,74.8,69.6,30.07,SSW,192,4.0,7.0,84,0.00,,,0.02,Wunderground v.1.15,2013-02-12 14:19:00,
2013-02-12 09:20:00,74.9,69.7,30.07,South,188,1.0,3.0,84,0.00,,,0.02,Wunderground v.1.15,2013-02-12 14:20:00,
2013-02-12 09:22:00,75.1,69.9,30.07,South,184,0.0,10.0,84,0.00,,,0.02,Wunderground v.1.15,2013-02-12 14:22:00,
2013-02-12 09:24:00,75.2,69.7,30.07,SSE,164,5.0,10.0,83,0.00,,,0.02,Wunderground v.1.15,2013-02-12 14:24:00,
2013-02-12 09:25:00,75.3,69.8,30.07,SSE,163,5.0,10.0,83,0.00,,,0.02,Wunderground v.1.15,2013-02-12 14:25:00,
2013-02-12 09:26:00,75.3,69.8,30.07,SSE,167,5.0,10.0,83,0.00,,,0.02,Wunderground v.1.15,2013-02-12 14:26:00,
2013-02-12 09:27:00,75.3,69.4,30.07,SSE,164,6.0,10.0,82,0.00,,,0.02,Wunderground v.1.15,2013-02-12 14:27:00,
2013-02-12 09:30:00,75.3,69.4,30.07,SE,136,8.0,8.0,82,0.00,,,0.02,Wunderground v.1.15,2013-02-12 14:30:00,
2013-02-12 09:32:00,75.4,69.5,30.07,SSE,163,0.0,8.0,82,0.00,,,0.02,Wunderground v.1.15,2013-02-12 14:32:00,
2013-02-12 09:35:00,75.8,69.9,30.07,SSW,195,2.0,8.0,82,0.00,,,0.02,Wunderground v.1.15,2013-02-12 14:35:00,
2013-02-12 09:36:00,76.0,70.1,30.07,SSW,195,0.0,8.0,82,0.00,,,0.02,Wunderground v.1.15,2013-02-12 14:36:00,
2013-02-12 09:37:00,76.1,70.2,30.07,SSE,150,7.0,8.0,82,0.00,,,0.02,Wunderground v.1.15,2013-02-12 14:37:00,
2013-02-12 09:40:00,76.4,69.8,30.08,South,174,2.0,3.0,80,0.00,,,0.02,Wunderground v.1.15,2013-02-12 14:40:00,
2013-02-12 09:41:00,76.5,69.9,30.08,SSW,205,4.0,4.0,80,0.00,,,0.02,Wunderground v.1.15,2013-02-12 14:41:00,
2013-02-12 09:42:00,76.8,69.4,30.08,South,184,2.0,7.0,78,0.00,,,0.02,Wunderground v.1.15,2013-02-12 14:42:00,
2013-02-12 09:43:00,76.9,69.5,30.08,SSW,198,6.0,8.0,78,0.00,,,0.02,Wunderground v.1.15,2013-02-12 14:43:00,
2013-02-12 09:45:00,77.1,69.7,30.08,South,184,1.0,8.0,78,0.00,,,0.02,Wunderground v.1.15,2013-02-12 14:45:00,
2013-02-12 09:46:00,77.1,69.7,30.08,South,179,2.0,8.0,78,0.00,,,0.02,Wunderground v.1.15,2013-02-12 14:46:00,
2013-02-12 09:47:00,77.2,69.8,30.08,South,179,0.0,8.0,78,0.00,,,0.02,Wunderground v.1.15,2013-02-12 14:47:00,
2013-02-12 09:48:00,77.3,69.5,30.08,South,170,4.0,8.0,77,0.00,,,0.02,Wunderground v.1.15,2013-02-12 14:48:00,
2013-02-12 09:51:00,77.3,69.1,30.08,South,175,2.0,8.0,76,0.00,,,0.02,Wunderground v.1.15,2013-02-12 14:51:00,
2013-02-12 09:52:00,77.2,69.0,30.08,South,180,6.0,8.0,76,0.00,,,0.02,Wunderground v.1.15,2013-02-12 14:52:00,
2013-02-12 09:54:00,77.1,68.6,30.08,SW,232,6.0,8.0,75,0.00,,,0.02,Wunderground v.1.15,2013-02-12 14:54:00,
2013-02-12 09:56:00,76.8,69.0,30.08,South,180,0.0,8.0,77,0.00,,,0.02,Wunderground v.1.15,2013-02-12 14:56:00,
2013-02-12 09:57:00,76.8,69.4,30.08,South,184,5.0,8.0,78,0.00,,,0.02,Wunderground v.1.15,2013-02-12 14:57:00,
2013-02-12 09:58:00,76.9,69.5,30.08,South,183,1.0,8.0,78,0.00,,,0.02,Wunderground v.1.15,2013-02-12 14:58:00,
2013-02-12 09:59:00,77.0,69.2,30.08,SSW,213,2.0,8.0,77,0.00,,,0.02,Wunderground v.1.15,2013-02-12 14:59:00,
2013-02-12 10:01:00,77.2,69.0,30.08,South,175,4.0,6.0,76,0.00,,,0.02,Wunderground v.1.15,2013-02-12 15:01:00,
2013-02-12 10:02:00,77.3,69.1,30.08,South,171,4.0,6.0,76,0.00,,,0.02,Wunderground v.1.15,2013-02-12 15:02:00,
2013-02-12 10:04:00,77.3,68.8,30.08,SSE,165,0.0,7.0,75,0.00,,,0.02,Wunderground v.1.15,2013-02-12 15:04:00,
2013-02-12 10:05:00,77.3,69.1,30.08,SSE,165,0.0,7.0,76,0.00,,,0.02,Wunderground v.1.15,2013-02-12 15:05:00,
2013-02-12 10:07:00,77.3,68.8,30.08,South,175,5.0,10.0,75,0.00,,,0.02,Wunderground v.1.15,2013-02-12 15:07:00,
2013-02-12 10:09:00,77.5,68.9,30.08,SSW,200,2.0,4.0,75,0.00,,,0.02,Wunderground v.1.15,2013-02-12 15:09:00,
2013-02-12 10:10:00,77.6,68.7,30.08,SSE,153,5.0,5.0,74,0.00,,,0.02,Wunderground v.1.15,2013-02-12 15:10:00,
2013-02-12 10:12:00,77.8,68.8,30.08,South,174,3.0,8.0,74,0.00,,,0.02,Wunderground v.1.15,2013-02-12 15:12:00,
2013-02-12 10:15:00,77.7,68.4,30.08,South,177,5.0,10.0,73,0.00,,,0.02,Wunderground v.1.15,2013-02-12 15:15:00,
2013-02-12 10:16:00,77.6,68.3,30.08,South,183,0.0,10.0,73,0.00,,,0.02,Wunderground v.1.15,2013-02-12 15:16:00,
2013-02-12 10:17:00,77.7,68.4,30.08,SE,145,6.0,11.0,73,0.00,,,0.02,Wunderground v.1.15,2013-02-12 15:17:00,
2013-02-12 10:20:00,77.7,68.4,30.08,South,177,5.0,5.0,73,0.00,,,0.02,Wunderground v.1.15,2013-02-12 15:20:00,
2013-02-12 10:22:00,77.8,68.8,30.08,SW,223,1.0,7.0,74,0.00,,,0.02,Wunderground v.1.15,2013-02-12 15:22:00,
2013-02-12 10:23:00,77.8,68.4,30.08,South,182,7.0,7.0,73,0.00,,,0.02,Wunderground v.1.15,2013-02-12 15:23:00,
2013-02-12 10:25:00,77.9,67.7,30.08,SSE,150,5.0,11.0,71,0.00,,,0.02,Wunderground v.1.15,2013-02-12 15:25:00,
2013-02-12 10:27:00,77.9,67.7,30.08,SE,132,5.0,11.0,71,0.00,,,0.02,Wunderground v.1.15,2013-02-12 15:27:00,
2013-02-12 10:28:00,77.9,68.1,30.08,South,185,4.0,11.0,72,0.00,,,0.02,Wunderground v.1.15,2013-02-12 15:28:00,
2013-02-12 10:30:00,78.1,68.3,30.08,SSE,166,4.0,5.0,72,0.00,,,0.02,Wunderground v.1.15,2013-02-12 15:30:00,
2013-02-12 10:32:00,78.1,68.3,30.08,SE,142,5.0,10.0,72,0.00,,,0.02,Wunderground v.1.15,2013-02-12 15:32:00,
2013-02-12 10:34:00,78.0,67.4,30.08,SSE,147,4.0,10.0,70,0.00,,,0.02,Wunderground v.1.15,2013-02-12 15:34:00,
2013-02-12 10:35:00,78.0,67.4,30.08,SSE,149,0.0,10.0,70,0.00,,,0.02,Wunderground v.1.15,2013-02-12 15:35:00,
2013-02-12 10:36:00,78.0,67.4,30.08,SSE,151,4.0,10.0,70,0.00,,,0.02,Wunderground v.1.15,2013-02-12 15:36:00,
2013-02-12 10:38:00,78.1,67.5,30.08,SE,145,6.0,10.0,70,0.00,,,0.02,Wunderground v.1.15,2013-02-12 15:38:00,
2013-02-12 10:39:00,78.2,68.0,30.08,SSE,154,0.0,10.0,71,0.00,,,0.02,Wunderground v.1.15,2013-02-12 15:39:00,
2013-02-12 10:40:00,78.2,68.0,30.08,SSE,156,4.0,7.0,71,0.00,,,0.02,Wunderground v.1.15,2013-02-12 15:40:00,
2013-02-12 10:42:00,78.3,68.1,30.08,SSE,154,3.0,7.0,71,0.00,,,0.02,Wunderground v.1.15,2013-02-12 15:42:00,
2013-02-12 10:43:00,78.4,67.8,30.08,SE,142,2.0,7.0,70,0.00,,,0.02,Wunderground v.1.15,2013-02-12 15:43:00,
2013-02-12 10:44:00,78.5,67.5,30.08,SSE,150,2.0,7.0,69,0.00,,,0.02,Wunderground v.1.15,2013-02-12 15:44:00,
2013-02-12 10:46:00,78.6,67.2,30.08,SSE,157,4.0,8.0,68,0.00,,,0.02,Wunderground v.1.15,2013-02-12 15:46:00,
2013-02-12 10:47:00,78.7,67.7,30.08,South,188,1.0,8.0,69,0.00,,,0.02,Wunderground v.1.15,2013-02-12 15:47:00,
2013-02-12 10:48:00,78.9,68.3,30.08,SSE,154,4.0,8.0,70,0.00,,,0.02,Wunderground v.1.15,2013-02-12 15:48:00,
2013-02-12 10:50:00,79.0,67.5,30.08,SSE,152,6.0,6.0,68,0.00,,,0.02,Wunderground v.1.15,2013-02-12 15:50:00,
2013-02-12 10:51:00,79.0,68.0,30.08,SSW,195,4.0,8.0,69,0.00,,,0.02,Wunderground v.1.15,2013-02-12 15:51:00,
2013-02-12 10:52:00,79.0,68.4,30.08,South,185,0.0,8.0,70,0.00,,,0.02,Wunderground v.1.15,2013-02-12 15:52:00,
2013-02-12 10:53:00,79.1,68.9,30.08,SSW,194,3.0,8.0,71,0.00,,,0.02,Wunderground v.1.15,2013-02-12 15:53:00,
2013-02-12 10:55:00,79.2,68.1,30.08,SSE,156,1.0,8.0,69,0.00,,,0.02,Wunderground v.1.15,2013-02-12 15:55:00,
2013-02-12 10:57:00,79.3,69.1,30.08,South,180,2.0,8.0,71,0.00,,,0.02,Wunderground v.1.15,2013-02-12 15:57:00,
2013-02-12 10:58:00,79.4,68.8,30.08,SSE,153,0.0,8.0,70,0.00,,,0.02,Wunderground v.1.15,2013-02-12 15:58:00,
2013-02-12 11:00:00,79.6,68.5,30.08,SSE,149,5.0,5.0,69,0.00,,,0.02,Wunderground v.1.15,2013-02-12 16:00:00,
2013-02-12 11:03:00,79.8,69.1,30.08,South,188,0.0,6.0,70,0.00,,,0.02,Wunderground v.1.15,2013-02-12 16:03:00,
2013-02-12 11:04:00,79.9,69.2,30.08,South,188,0.0,6.0,70,0.00,,,0.02,Wunderground v.1.15,2013-02-12 16:04:00,
2013-02-12 11:05:00,80.1,68.6,30.08,SSW,192,1.0,6.0,68,0.00,,,0.02,Wunderground v.1.15,2013-02-12 16:05:00,
2013-02-12 11:08:00,80.4,69.7,30.08,South,189,6.0,6.0,70,0.00,,,0.02,Wunderground v.1.15,2013-02-12 16:08:00,
2013-02-12 11:09:00,80.4,68.9,30.07,South,171,5.0,5.0,68,0.00,,,0.02,Wunderground v.1.15,2013-02-12 16:09:00,
2013-02-12 11:11:00,80.5,69.4,30.07,SSW,200,2.0,6.0,69,0.00,,,0.02,Wunderground v.1.15,2013-02-12 16:11:00,
2013-02-12 11:14:00,80.7,68.7,30.07,SW,234,1.0,6.0,67,0.00,,,0.02,Wunderground v.1.15,2013-02-12 16:14:00,
2013-02-12 11:16:00,80.9,68.9,30.07,SW,217,0.0,6.0,67,0.00,,,0.02,Wunderground v.1.15,2013-02-12 16:16:00,
2013-02-12 11:19:00,80.5,68.5,30.07,South,187,5.0,9.0,67,0.00,,,0.02,Wunderground v.1.15,2013-02-12 16:19:00,
2013-02-12 11:20:00,80.5,69.0,30.07,South,184,1.0,4.0,68,0.00,,,0.02,Wunderground v.1.15,2013-02-12 16:20:00,
2013-02-12 11:21:00,80.5,69.0,30.07,SSE,168,3.0,5.0,68,0.00,,,0.02,Wunderground v.1.15,2013-02-12 16:21:00,
2013-02-12 11:25:00,80.1,68.6,30.07,South,179,7.0,10.0,68,0.00,,,0.02,Wunderground v.1.15,2013-02-12 16:25:00,
2013-02-12 11:26:00,80.1,68.2,30.07,South,171,0.0,10.0,67,0.00,,,0.02,Wunderground v.1.15,2013-02-12 16:26:00,
2013-02-12 11:27:00,80.0,68.5,30.07,South,171,0.0,10.0,68,0.00,,,0.02,Wunderground v.1.15,2013-02-12 16:27:00,
2013-02-12 11:29:00,80.3,69.2,30.07,SSE,165,6.0,6.0,69,0.00,,,0.02,Wunderground v.1.15,2013-02-12 16:29:00,
2013-02-12 11:31:00,80.4,68.4,30.07,SSE,151,8.0,8.0,67,0.00,,,0.02,Wunderground v.1.15,2013-02-12 16:31:00,
2013-02-12 11:32:00,80.3,68.3,30.07,SSE,155,5.0,8.0,67,0.00,,,0.02,Wunderground v.1.15,2013-02-12 16:32:00,
2013-02-12 11:35:00,80.3,69.2,30.07,SSE,157,5.0,9.0,69,0.00,,,0.02,Wunderground v.1.15,2013-02-12 16:35:00,
2013-02-12 11:36:00,80.3,68.8,30.07,South,171,2.0,9.0,68,0.00,,,0.02,Wunderground v.1.15,2013-02-12 16:36:00,
2013-02-12 11:37:00,80.3,69.2,30.06,SW,216,7.0,9.0,69,0.00,,,0.02,Wunderground v.1.15,2013-02-12 16:37:00,
2013-02-12 11:41:00,80.1,69.0,30.06,SE,142,0.0,6.0,69,0.00,,,0.02,Wunderground v.1.15,2013-02-12 16:41:00,
2013-02-12 11:42:00,80.0,68.5,30.06,SSE,164,5.0,8.0,68,0.00,,,0.02,Wunderground v.1.15,2013-02-12 16:42:00,
2013-02-12 11:43:00,80.1,69.0,30.06,SSE,148,5.0,8.0,69,0.00,,,0.02,Wunderground v.1.15,2013-02-12 16:43:00,
2013-02-12 11:47:00,80.1,69.0,30.06,SE,141,0.0,8.0,69,0.00,,,0.02,Wunderground v.1.15,2013-02-12 16:47:00,
2013-02-12 11:48:00,80.2,68.7,30.06,SE,141,1.0,8.0,68,0.00,,,0.02,Wunderground v.1.15,2013-02-12 16:48:00,
2013-02-12 11:49:00,80.4,68.0,30.06,SE,141,0.0,8.0,66,0.00,,,0.02,Wunderground v.1.15,2013-02-12 16:49:00,
2013-02-12 11:53:00,82.1,68.7,30.06,SW,219,0.0,5.0,64,0.00,,,0.02,Wunderground v.1.15,2013-02-12 16:53:00,
2013-02-12 11:54:00,82.1,68.3,30.06,South,171,2.0,5.0,63,0.00,,,0.02,Wunderground v.1.15,2013-02-12 16:54:00,
2013-02-12 11:59:00,81.2,68.3,30.06,SE,146,0.0,7.0,65,0.00,,,0.02,Wunderground v.1.15,2013-02-12 16:59:00,
2013-02-12 12:00:00,80.9,68.0,30.06,SSE,149,0.0,6.0,65,0.00,,,0.02,Wunderground v.1.15,2013-02-12 17:00:00,
2013-02-12 12:04:00,80.7,68.3,30.05,South,185,1.0,6.0,66,0.00,,,0.02,Wunderground v.1.15,2013-02-12 17:04:00,
2013-02-12 12:05:00,80.9,68.5,30.05,South,184,0.0,6.0,66,0.00,,,0.02,Wunderground v.1.15,2013-02-12 17:05:00,
2013-02-12 12:06:00,81.0,68.6,30.05,South,186,7.0,7.0,66,0.00,,,0.02,Wunderground v.1.15,2013-02-12 17:06:00,
2013-02-12 12:10:00,81.9,67.6,30.05,South,178,2.0,5.0,62,0.00,,,0.02,Wunderground v.1.15,2013-02-12 17:10:00,
2013-02-12 12:11:00,81.9,67.6,30.05,South,178,2.0,5.0,62,0.00,,,0.02,Wunderground v.1.15,2013-02-12 17:11:00,
2013-02-12 12:12:00,81.9,67.1,30.05,SSW,205,5.0,6.0,61,0.00,,,0.02,Wunderground v.1.15,2013-02-12 17:12:00,
2013-02-12 12:15:00,81.9,68.5,30.05,SSW,200,0.0,7.0,64,0.00,,,0.02,Wunderground v.1.15,2013-02-12 17:15:00,
2013-02-12 12:16:00,81.9,68.5,30.05,SSW,199,0.0,7.0,64,0.00,,,0.02,Wunderground v.1.15,2013-02-12 17:16:00,
2013-02-12 12:18:00,81.8,68.4,30.05,SSW,204,3.0,7.0,64,0.00,,,0.02,Wunderground v.1.15,2013-02-12 17:18:00,
2013-02-12 12:21:00,81.3,68.4,30.05,SSE,147,1.0,6.0,65,0.00,,,0.02,Wunderground v.1.15,2013-02-12 17:21:00,
2013-02-12 12:22:00,81.0,68.6,30.04,SSE,148,0.0,6.0,66,0.00,,,0.02,Wunderground v.1.15,2013-02-12 17:22:00,
2013-02-12 12:23:00,80.9,68.5,30.04,SSE,148,0.0,6.0,66,0.00,,,0.02,Wunderground v.1.15,2013-02-12 17:23:00,
2013-02-12 12:26:00,80.7,67.8,30.04,SSE,150,6.0,7.0,65,0.00,,,0.02,Wunderground v.1.15,2013-02-12 17:26:00,
2013-02-12 12:27:00,80.7,67.8,30.04,SSE,159,0.0,7.0,65,0.00,,,0.02,Wunderground v.1.15,2013-02-12 17:27:00,
2013-02-12 12:28:00,80.8,68.8,30.04,SSE,163,0.0,7.0,67,0.00,,,0.02,Wunderground v.1.15,2013-02-12 17:28:00,
2013-02-12 12:31:00,81.1,67.3,30.04,SSE,163,0.0,2.0,63,0.00,,,0.02,Wunderground v.1.15,2013-02-12 17:31:00,
2013-02-12 12:32:00,81.5,68.1,30.04,SSE,163,0.0,2.0,64,0.00,,,0.02,Wunderground v.1.15,2013-02-12 17:32:00,
2013-02-12 12:33:00,81.6,68.2,30.04,SSE,163,0.0,2.0,64,0.00,,,0.02,Wunderground v.1.15,2013-02-12 17:33:00,
2013-02-12 12:36:00,82.8,68.0,30.04,West,262,4.0,4.0,61,0.00,,,0.02,Wunderground v.1.15,2013-02-12 17:36:00,
2013-02-12 12:37:00,83.2,67.9,30.04,WSW,246,0.0,4.0,60,0.00,,,0.02,Wunderground v.1.15,2013-02-12 17:37:00,
2013-02-12 12:39:00,83.6,68.2,30.04,WSW,248,0.0,5.0,60,0.00,,,0.02,Wunderground v.1.15,2013-02-12 17:39:00,
2013-02-12 12:41:00,84.3,68.9,30.04,WSW,249,2.0,2.0,60,0.00,,,0.02,Wunderground v.1.15,2013-02-12 17:41:00,
2013-02-12 12:43:00,84.9,68.0,30.04,WSW,256,0.0,5.0,57,0.00,,,0.02,Wunderground v.1.15,2013-02-12 17:43:00,
2013-02-12 12:44:00,85.1,67.6,30.04,SW,229,1.0,5.0,56,0.00,,,0.02,Wunderground v.1.15,2013-02-12 17:44:00,
2013-02-12 12:45:00,85.1,67.6,30.04,SW,231,0.0,5.0,56,0.00,,,0.02,Wunderground v.1.15,2013-02-12 17:45:00,
2013-02-12 12:47:00,85.1,67.6,30.04,SW,223,0.0,6.0,56,0.00,,,0.02,Wunderground v.1.15,2013-02-12 17:47:00,
2013-02-12 12:48:00,85.2,67.2,30.04,SW,224,1.0,6.0,55,0.00,,,0.02,Wunderground v.1.15,2013-02-12 17:48:00,
2013-02-12 12:49:00,85.1,68.2,30.04,SW,224,0.0,0.0,57,0.00,,,0.02,Wunderground v.1.15,2013-02-12 17:49:00,
2013-02-12 12:50:00,85.1,68.2,30.04,SW,224,0.0,1.0,57,0.00,,,0.02,Wunderground v.1.15,2013-02-12 17:50:00,
2013-02-12 12:53:00,84.2,66.8,30.04,SW,215,0.0,4.0,56,0.00,,,0.02,Wunderground v.1.15,2013-02-12 17:53:00,
2013-02-12 12:55:00,83.9,68.0,30.03,SSW,213,0.0,5.0,59,0.00,,,0.02,Wunderground v.1.15,2013-02-12 17:55:00,
2013-02-12 12:56:00,84.1,67.7,30.03,SW,214,0.0,5.0,58,0.00,,,0.02,Wunderground v.1.15,2013-02-12 17:56:00,
2013-02-12 12:58:00,84.6,68.2,30.03,SSW,202,0.0,7.0,58,0.00,,,0.02,Wunderground v.1.15,2013-02-12 17:58:00,
2013-02-12 12:59:00,84.6,68.7,30.03,WSW,244,1.0,7.0,59,0.00,,,0.02,Wunderground v.1.15,2013-02-12 17:59:00,
2013-02-12 13:01:00,84.5,67.6,30.03,SW,226,1.0,4.0,57,0.00,,,0.02,Wunderground v.1.15,2013-02-12 18:01:00,
2013-02-12 13:04:00,84.6,69.2,30.03,WSW,240,1.0,6.0,60,0.00,,,0.02,Wunderground v.1.15,2013-02-12 18:04:00,
2013-02-12 13:06:00,84.7,67.3,30.03,South,191,0.0,8.0,56,0.00,,,0.02,Wunderground v.1.15,2013-02-12 18:06:00,
2013-02-12 13:09:00,84.4,67.5,30.02,SSW,195,5.0,8.0,57,0.00,,,0.02,Wunderground v.1.15,2013-02-12 18:09:00,
2013-02-12 13:11:00,83.6,66.2,30.02,SSE,163,5.0,7.0,56,0.00,,,0.02,Wunderground v.1.15,2013-02-12 18:11:00,
2013-02-12 13:12:00,83.5,66.2,30.02,SSW,196,2.0,7.0,56,0.00,,,0.02,Wunderground v.1.15,2013-02-12 18:12:00,
2013-02-12 13:14:00,83.3,67.5,30.02,South,175,2.0,9.0,59,0.00,,,0.02,Wunderground v.1.15,2013-02-12 18:14:00,
2013-02-12 13:15:00,83.3,67.5,30.02,South,176,0.0,9.0,59,0.00,,,0.02,Wunderground v.1.15,2013-02-12 18:15:00,
2013-02-12 13:17:00,83.3,67.0,30.01,SSE,157,5.0,9.0,58,0.00,,,0.02,Wunderground v.1.15,2013-02-12 18:17:00,
2013-02-12 13:20:00,83.2,66.9,30.01,South,184,0.0,3.0,58,0.00,,,0.02,Wunderground v.1.15,2013-02-12 18:20:00,
2013-02-12 13:22:00,83.5,68.2,30.01,SSW,213,0.0,6.0,60,0.00,,,0.02,Wunderground v.1.15,2013-02-12 18:22:00,
2013-02-12 13:23:00,83.6,68.2,30.01,South,177,2.0,6.0,60,0.00,,,0.02,Wunderground v.1.15,2013-02-12 18:23:00,
2013-02-12 13:25:00,83.8,67.9,30.01,South,177,1.0,6.0,59,0.00,,,0.02,Wunderground v.1.15,2013-02-12 18:25:00,
2013-02-12 13:28:00,83.7,67.4,30.01,South,181,4.0,8.0,58,0.00,,,0.02,Wunderground v.1.15,2013-02-12 18:28:00,
2013-02-12 13:30:00,83.1,67.3,30.01,SSW,201,0.0,5.0,59,0.00,,,0.02,Wunderground v.1.15,2013-02-12 18:30:00,
2013-02-12 13:33:00,82.8,68.4,30.01,WNW,296,0.0,5.0,62,0.00,,,0.02,Wunderground v.1.15,2013-02-12 18:33:00,
2013-02-12 13:34:00,82.9,67.1,30.01,WSW,247,5.0,5.0,59,0.00,,,0.02,Wunderground v.1.15,2013-02-12 18:34:00,
2013-02-12 13:35:00,83.4,69.0,30.01,SW,236,1.0,5.0,62,0.00,,,0.02,Wunderground v.1.15,2013-02-12 18:35:00,
2013-02-12 13:36:00,83.9,68.0,30.01,WSW,254,0.0,5.0,59,0.00,,,0.02,Wunderground v.1.15,2013-02-12 18:36:00,
2013-02-12 13:38:00,85.0,69.1,30.00,West,265,0.0,5.0,59,0.00,,,0.02,Wunderground v.1.15,2013-02-12 18:38:00,
2013-02-12 13:39:00,85.3,68.8,30.00,SW,224,2.0,5.0,58,0.00,,,0.02,Wunderground v.1.15,2013-02-12 18:39:00,
2013-02-12 13:41:00,85.2,68.8,30.01,SW,218,0.0,8.0,58,0.00,,,0.02,Wunderground v.1.15,2013-02-12 18:41:00,
2013-02-12 13:42:00,85.2,69.3,30.00,SW,215,0.0,8.0,59,0.00,,,0.02,Wunderground v.1.15,2013-02-12 18:42:00,
2013-02-12 13:44:00,85.4,68.4,30.00,WSW,238,0.0,8.0,57,0.00,,,0.02,Wunderground v.1.15,2013-02-12 18:44:00,
2013-02-12 13:46:00,85.4,66.9,30.00,SW,229,0.0,8.0,54,0.00,,,0.02,Wunderground v.1.15,2013-02-12 18:46:00,
2013-02-12 13:48:00,85.1,67.1,30.00,SW,229,0.0,8.0,55,0.00,,,0.02,Wunderground v.1.15,2013-02-12 18:48:00,
2013-02-12 13:50:00,84.4,67.5,30.00,SSW,204,1.0,2.0,57,0.00,,,0.02,Wunderground v.1.15,2013-02-12 18:50:00,
2013-02-12 13:52:00,84.0,66.1,30.00,SSW,192,0.0,3.0,55,0.00,,,0.02,Wunderground v.1.15,2013-02-12 18:52:00,
2013-02-12 13:53:00,83.8,66.4,30.00,South,190,1.0,3.0,56,0.00,,,0.02,Wunderground v.1.15,2013-02-12 18:53:00,
2013-02-12 13:55:00,83.4,66.6,30.00,South,187,0.0,3.0,57,0.00,,,0.02,Wunderground v.1.15,2013-02-12 18:55:00,
2013-02-12 13:56:00,83.5,66.7,30.00,South,180,0.0,4.0,57,0.00,,,0.02,Wunderground v.1.15,2013-02-12 18:56:00,
2013-02-12 13:58:00,83.7,67.8,30.00,SW,225,0.0,4.0,59,0.00,,,0.02,Wunderground v.1.15,2013-02-12 18:58:00,
2013-02-12 13:59:00,83.9,67.5,29.99,SSW,204,5.0,7.0,58,0.00,,,0.02,Wunderground v.1.15,2013-02-12 18:59:00,
2013-02-12 14:01:00,84.0,67.1,29.99,South,171,5.0,7.0,57,0.00,,,0.02,Wunderground v.1.15,2013-02-12 19:01:00,
2013-02-12 14:03:00,83.6,67.3,29.99,SSW,209,0.0,7.0,58,0.00,,,0.02,Wunderground v.1.15,2013-02-12 19:03:00,
2013-02-12 14:04:00,83.6,67.8,29.99,West,280,0.0,8.0,59,0.00,,,0.02,Wunderground v.1.15,2013-02-12 19:04:00,
2013-02-12 14:06:00,83.7,66.8,29.99,South,173,1.0,8.0,57,0.00,,,0.02,Wunderground v.1.15,2013-02-12 19:06:00,
2013-02-12 14:07:00,83.6,67.3,29.99,South,173,1.0,8.0,58,0.00,,,0.02,Wunderground v.1.15,2013-02-12 19:07:00,
2013-02-12 14:08:00,83.4,67.1,29.99,SSW,192,0.0,8.0,58,0.00,,,0.02,Wunderground v.1.15,2013-02-12 19:08:00,
2013-02-12 14:10:00,83.1,66.8,29.99,South,184,1.0,5.0,58,0.00,,,0.02,Wunderground v.1.15,2013-02-12 19:10:00,
2013-02-12 14:11:00,83.1,66.8,29.99,South,171,0.0,5.0,58,0.00,,,0.02,Wunderground v.1.15,2013-02-12 19:11:00,
2013-02-12 14:12:00,83.4,68.1,29.99,SSW,195,0.0,5.0,60,0.00,,,0.02,Wunderground v.1.15,2013-02-12 19:12:00,
2013-02-12 14:15:00,84.7,68.3,29.99,West,261,5.0,5.0,58,0.00,,,0.02,Wunderground v.1.15,2013-02-12 19:15:00,
2013-02-12 14:16:00,85.2,67.2,29.99,WSW,255,0.0,5.0,55,0.00,,,0.02,Wunderground v.1.15,2013-02-12 19:16:00,
2013-02-12 14:17:00,85.4,68.4,29.99,WSW,255,0.0,5.0,57,0.00,,,0.02,Wunderground v.1.15,2013-02-12 19:17:00,
2013-02-12 14:20:00,86.1,68.0,29.98,NNW,330,0.0,1.0,55,0.00,,,0.02,Wunderground v.1.15,2013-02-12 19:20:00,
2013-02-12 14:22:00,85.7,68.2,29.99,NNW,330,0.0,1.0,56,0.00,,,0.02,Wunderground v.1.15,2013-02-12 19:22:00,
2013-02-12 14:23:00,85.4,67.4,29.99,ENE,67,1.0,4.0,55,0.00,,,0.02,Wunderground v.1.15,2013-02-12 19:23:00,
2013-02-12 14:25:00,84.7,67.8,29.99,SSW,212,1.0,6.0,57,0.00,,,0.02,Wunderground v.1.15,2013-02-12 19:25:00,
2013-02-12 14:26:00,84.7,67.8,29.99,SSW,211,0.0,6.0,57,0.00,,,0.02,Wunderground v.1.15,2013-02-12 19:26:00,
2013-02-12 14:27:00,84.8,67.9,29.98,SW,236,0.0,6.0,57,0.00,,,0.02,Wunderground v.1.15,2013-02-12 19:27:00,
2013-02-12 14:29:00,85.5,68.0,29.98,West,260,0.0,6.0,56,0.00,,,0.02,Wunderground v.1.15,2013-02-12 19:29:00,
2013-02-12 14:31:00,86.3,67.7,29.98,West,267,0.0,8.0,54,0.00,,,0.02,Wunderground v.1.15,2013-02-12 19:31:00,
2013-02-12 14:32:00,86.5,67.9,29.98,SW,216,4.0,8.0,54,0.00,,,0.02,Wunderground v.1.15,2013-02-12 19:32:00,
2013-02-12 14:34:00,86.6,68.5,29.98,SW,219,0.0,8.0,55,0.00,,,0.02,Wunderground v.1.15,2013-02-12 19:34:00,
2013-02-12 14:36:00,86.6,68.0,29.98,SSW,211,0.0,8.0,54,0.00,,,0.02,Wunderground v.1.15,2013-02-12 19:36:00,
2013-02-12 14:37:00,86.6,68.0,29.98,SSW,204,2.0,8.0,54,0.00,,,0.02,Wunderground v.1.15,2013-02-12 19:37:00,
2013-02-12 14:39:00,86.0,67.4,29.98,South,174,0.0,8.0,54,0.00,,,0.02,Wunderground v.1.15,2013-02-12 19:39:00,
2013-02-12 14:42:00,84.9,69.5,29.98,SW,223,3.0,7.0,60,0.00,,,0.02,Wunderground v.1.15,2013-02-12 19:42:00,
2013-02-12 14:44:00,83.6,69.2,29.98,South,182,5.0,7.0,62,0.00,,,0.02,Wunderground v.1.15,2013-02-12 19:44:00,
2013-02-12 14:47:00,82.7,69.3,29.98,South,177,4.0,9.0,64,0.00,,,0.02,Wunderground v.1.15,2013-02-12 19:47:00,
2013-02-12 14:48:00,82.6,69.2,29.98,South,178,9.0,9.0,64,0.00,,,0.02,Wunderground v.1.15,2013-02-12 19:48:00,
2013-02-12 14:50:00,82.3,69.8,29.98,SSE,168,1.0,3.0,66,0.00,,,0.02,Wunderground v.1.15,2013-02-12 19:50:00,
2013-02-12 14:52:00,82.2,69.7,29.98,South,176,5.0,8.0,66,0.00,,,0.02,Wunderground v.1.15,2013-02-12 19:52:00,
2013-02-12 14:53:00,82.2,69.7,29.98,South,183,5.0,8.0,66,0.00,,,0.02,Wunderground v.1.15,2013-02-12 19:53:00,
2013-02-12 14:55:00,82.2,70.1,29.98,SSE,164,2.0,9.0,67,0.00,,,0.02,Wunderground v.1.15,2013-02-12 19:55:00,
2013-02-12 14:57:00,82.0,70.4,29.98,South,188,1.0,9.0,68,0.00,,,0.02,Wunderground v.1.15,2013-02-12 19:57:00,
2013-02-12 14:58:00,82.0,70.4,29.98,SSE,166,5.0,9.0,68,0.00,,,0.02,Wunderground v.1.15,2013-02-12 19:58:00,
2013-02-12 14:59:00,81.9,70.3,29.98,ESE,111,8.0,9.0,68,0.00,,,0.02,Wunderground v.1.15,2013-02-12 19:59:00,
2013-02-12 15:01:00,81.7,70.5,29.98,SE,130,9.0,9.0,69,0.00,,,0.02,Wunderground v.1.15,2013-02-12 20:01:00,
2013-02-12 15:02:00,81.6,70.4,29.97,SSE,158,1.0,9.0,69,0.00,,,0.02,Wunderground v.1.15,2013-02-12 20:02:00,
2013-02-12 15:04:00,81.5,70.3,29.97,SE,132,8.0,9.0,69,0.00,,,0.02,Wunderground v.1.15,2013-02-12 20:04:00,
2013-02-12 15:05:00,81.4,70.2,29.97,SSE,159,5.0,9.0,69,0.00,,,0.02,Wunderground v.1.15,2013-02-12 20:05:00,
2013-02-12 15:06:00,81.2,70.5,29.97,SE,143,4.0,9.0,70,0.00,,,0.02,Wunderground v.1.15,2013-02-12 20:06:00,
2013-02-12 15:08:00,81.1,70.4,29.97,South,174,9.0,9.0,70,0.00,,,0.02,Wunderground v.1.15,2013-02-12 20:08:00,
2013-02-12 15:10:00,81.0,70.3,29.97,South,180,0.0,4.0,70,0.00,,,0.02,Wunderground v.1.15,2013-02-12 20:10:00,
2013-02-12 15:11:00,81.0,70.3,29.97,South,184,0.0,4.0,70,0.00,,,0.02,Wunderground v.1.15,2013-02-12 20:11:00,
2013-02-12 15:13:00,81.1,70.4,29.97,South,177,1.0,7.0,70,0.00,,,0.02,Wunderground v.1.15,2013-02-12 20:13:00,
2013-02-12 15:15:00,81.1,70.8,29.97,SSW,207,4.0,7.0,71,0.00,,,0.02,Wunderground v.1.15,2013-02-12 20:15:00,
2013-02-12 15:16:00,81.1,70.4,29.97,SSW,200,5.0,7.0,70,0.00,,,0.02,Wunderground v.1.15,2013-02-12 20:16:00,
2013-02-12 15:18:00,81.2,70.5,29.97,South,170,4.0,7.0,70,0.00,,,0.02,Wunderground v.1.15,2013-02-12 20:18:00,
2013-02-12 15:20:00,81.5,70.8,29.97,SSE,167,8.0,8.0,70,0.00,,,0.02,Wunderground v.1.15,2013-02-12 20:20:00,
2013-02-12 15:22:00,81.5,70.3,29.97,SSE,159,4.0,9.0,69,0.00,,,0.02,Wunderground v.1.15,2013-02-12 20:22:00,
2013-02-12 15:23:00,81.3,70.2,29.97,South,181,7.0,9.0,69,0.00,,,0.02,Wunderground v.1.15,2013-02-12 20:23:00,
2013-02-12 15:26:00,81.1,70.0,29.96,South,185,0.0,9.0,69,0.00,,,0.02,Wunderground v.1.15,2013-02-12 20:26:00,
2013-02-12 15:27:00,81.0,70.3,29.96,SE,143,6.0,9.0,70,0.00,,,0.02,Wunderground v.1.15,2013-02-12 20:27:00,
2013-02-12 15:28:00,81.0,70.3,29.96,SE,144,9.0,9.0,70,0.00,,,0.02,Wunderground v.1.15,2013-02-12 20:28:00,
2013-02-12 15:31:00,80.9,70.2,29.96,SSW,210,6.0,6.0,70,0.00,,,0.02,Wunderground v.1.15,2013-02-12 20:31:00,
2013-02-12 15:32:00,81.0,70.3,29.96,SSW,200,2.0,7.0,70,0.00,,,0.02,Wunderground v.1.15,2013-02-12 20:32:00,
2013-02-12 15:33:00,81.1,70.0,29.96,South,169,5.0,7.0,69,0.00,,,0.02,Wunderground v.1.15,2013-02-12 20:33:00,
2013-02-12 15:34:00,81.1,70.4,29.96,South,180,1.0,7.0,70,0.00,,,0.02,Wunderground v.1.15,2013-02-12 20:34:00,
2013-02-12 15:36:00,81.1,70.4,29.96,SSW,194,3.0,7.0,70,0.00,,,0.02,Wunderground v.1.15,2013-02-12 20:36:00,
2013-02-12 15:38:00,81.0,70.7,29.96,South,172,7.0,10.0,71,0.00,,,0.02,Wunderground v.1.15,2013-02-12 20:38:00,
2013-02-12 15:39:00,80.9,70.2,29.96,SSE,154,7.0,10.0,70,0.00,,,0.02,Wunderground v.1.15,2013-02-12 20:39:00,
2013-02-12 15:42:00,80.6,70.3,29.96,South,173,0.0,5.0,71,0.00,,,0.02,Wunderground v.1.15,2013-02-12 20:42:00,
2013-02-12 15:43:00,80.5,70.2,29.96,SSE,162,7.0,7.0,71,0.00,,,0.02,Wunderground v.1.15,2013-02-12 20:43:00,
2013-02-12 15:44:00,80.5,70.2,29.96,SSE,153,4.0,7.0,71,0.00,,,0.02,Wunderground v.1.15,2013-02-12 20:44:00,
2013-02-12 15:47:00,80.4,70.5,29.96,SSE,149,8.0,11.0,72,0.00,,,0.02,Wunderground v.1.15,2013-02-12 20:47:00,
2013-02-12 15:49:00,80.3,70.4,29.96,SE,135,11.0,11.0,72,0.00,,,0.02,Wunderground v.1.15,2013-02-12 20:49:00,
2013-02-12 15:52:00,80.4,70.9,29.95,South,174,4.0,7.0,73,0.00,,,0.02,Wunderground v.1.15,2013-02-12 20:52:00,
2013-02-12 15:54:00,80.6,70.7,29.95,SSE,161,5.0,9.0,72,0.00,,,0.02,Wunderground v.1.15,2013-02-12 20:54:00,
2013-02-12 15:55:00,80.6,70.7,29.95,South,190,6.0,9.0,72,0.00,,,0.02,Wunderground v.1.15,2013-02-12 20:55:00,
2013-02-12 15:57:00,80.5,70.6,29.95,SSW,202,6.0,10.0,72,0.00,,,0.02,Wunderground v.1.15,2013-02-12 20:57:00,
2013-02-12 15:59:00,80.5,70.6,29.95,SSE,167,6.0,12.0,72,0.00,,,0.02,Wunderground v.1.15,2013-02-12 20:59:00,
2013-02-12 16:00:00,80.4,70.5,29.95,South,178,5.0,6.0,72,0.00,,,0.02,Wunderground v.1.15,2013-02-12 21:00:00,
2013-02-12 16:01:00,80.4,70.5,29.95,South,190,9.0,9.0,72,0.00,,,0.02,Wunderground v.1.15,2013-02-12 21:01:00,
2013-02-12 16:02:00,80.4,70.9,29.95,SE,140,6.0,10.0,73,0.00,,,0.02,Wunderground v.1.15,2013-02-12 21:02:00,
2013-02-12 16:04:00,80.3,70.9,29.95,SSE,165,6.0,10.0,73,0.00,,,0.02,Wunderground v.1.15,2013-02-12 21:04:00,
2013-02-12 16:06:00,80.3,70.9,29.95,SSE,161,1.0,10.0,73,0.00,,,0.02,Wunderground v.1.15,2013-02-12 21:06:00,
2013-02-12 16:07:00,80.3,70.9,29.95,SSW,192,7.0,10.0,73,0.00,,,0.02,Wunderground v.1.15,2013-02-12 21:07:00,
2013-02-12 16:10:00,80.2,70.4,29.95,SSE,150,5.0,10.0,72,0.00,,,0.02,Wunderground v.1.15,2013-02-12 21:10:00,
2013-02-12 16:12:00,80.1,70.7,29.95,SE,126,6.0,10.0,73,0.00,,,0.02,Wunderground v.1.15,2013-02-12 21:12:00,
2013-02-12 16:15:00,80.0,70.6,29.95,SSE,152,0.0,10.0,73,0.00,,,0.02,Wunderground v.1.15,2013-02-12 21:15:00,
2013-02-12 16:17:00,79.9,70.9,29.95,SSE,157,1.0,10.0,74,0.00,,,0.02,Wunderground v.1.15,2013-02-12 21:17:00,
2013-02-12 16:18:00,79.8,70.4,29.95,SSE,159,4.0,11.0,73,0.00,,,0.02,Wunderground v.1.15,2013-02-12 21:18:00,
2013-02-12 16:21:00,79.6,70.6,29.95,SSE,159,1.0,8.0,74,0.00,,,0.02,Wunderground v.1.15,2013-02-12 21:21:00,
2013-02-12 16:23:00,79.6,70.6,29.95,South,180,6.0,8.0,74,0.00,,,0.02,Wunderground v.1.15,2013-02-12 21:23:00,
2013-02-12 16:24:00,79.6,70.6,29.95,South,177,1.0,8.0,74,0.00,,,0.02,Wunderground v.1.15,2013-02-12 21:24:00,
2013-02-12 16:27:00,79.9,70.9,29.94,SSW,192,7.0,10.0,74,0.00,,,0.02,Wunderground v.1.15,2013-02-12 21:27:00,
2013-02-12 16:28:00,80.0,70.6,29.94,South,173,5.0,10.0,73,0.00,,,0.02,Wunderground v.1.15,2013-02-12 21:28:00,
2013-02-12 16:29:00,80.0,70.6,29.94,South,179,2.0,10.0,73,0.00,,,0.02,Wunderground v.1.15,2013-02-12 21:29:00,
2013-02-12 16:33:00,79.9,70.5,29.94,South,173,10.0,10.0,73,0.00,,,0.02,Wunderground v.1.15,2013-02-12 21:33:00,
2013-02-12 16:34:00,79.9,70.5,29.94,SSE,163,3.0,13.0,73,0.00,,,0.02,Wunderground v.1.15,2013-02-12 21:34:00,
2013-02-12 16:35:00,79.8,70.4,29.94,South,178,4.0,13.0,73,0.00,,,0.02,Wunderground v.1.15,2013-02-12 21:35:00,
2013-02-12 16:39:00,79.8,70.4,29.94,South,173,6.0,13.0,73,0.00,,,0.02,Wunderground v.1.15,2013-02-12 21:39:00,
2013-02-12 16:40:00,79.7,70.3,29.94,SSE,161,5.0,9.0,73,0.00,,,0.02,Wunderground v.1.15,2013-02-12 21:40:00,
2013-02-12 16:41:00,79.6,70.6,29.94,SSW,208,4.0,10.0,74,0.00,,,0.02,Wunderground v.1.15,2013-02-12 21:41:00,
2013-02-12 16:44:00,79.4,70.4,29.94,SSE,148,7.0,13.0,74,0.00,,,0.02,Wunderground v.1.15,2013-02-12 21:44:00,
2013-02-12 16:45:00,79.3,70.3,29.94,SE,134,6.0,13.0,74,0.00,,,0.02,Wunderground v.1.15,2013-02-12 21:45:00,
2013-02-12 16:46:00,79.2,70.6,29.94,SSE,161,8.0,13.0,75,0.00,,,0.02,Wunderground v.1.15,2013-02-12 21:46:00,
2013-02-12 16:49:00,79.0,70.4,29.94,SE,139,7.0,13.0,75,0.00,,,0.02,Wunderground v.1.15,2013-02-12 21:49:00,
2013-02-12 16:50:00,78.9,70.3,29.94,SE,144,8.0,10.0,75,0.00,,,0.02,Wunderground v.1.15,2013-02-12 21:50:00,
2013-02-12 16:52:00,78.8,70.2,29.94,SSE,159,4.0,10.0,75,0.00,,,0.02,Wunderground v.1.15,2013-02-12 21:52:00,
2013-02-12 16:54:00,78.8,70.6,29.94,SSE,167,5.0,10.0,76,0.00,,,0.02,Wunderground v.1.15,2013-02-12 21:54:00,
2013-02-12 16:55:00,78.7,70.5,29.94,SSE,150,7.0,10.0,76,0.00,,,0.02,Wunderground v.1.15,2013-02-12 21:55:00,
2013-02-12 16:57:00,78.8,70.6,29.94,SSE,150,5.0,10.0,76,0.00,,,0.02,Wunderground v.1.15,2013-02-12 21:57:00,
2013-02-12 16:59:00,78.7,70.5,29.94,SE,146,1.0,10.0,76,0.00,,,0.02,Wunderground v.1.15,2013-02-12 21:59:00,
2013-02-12 17:00:00,78.7,70.5,29.94,SSE,165,5.0,11.0,76,0.00,,,0.02,Wunderground v.1.15,2013-02-12 22:00:00,
2013-02-12 17:01:00,78.6,70.4,29.94,South,184,3.0,11.0,76,0.00,,,0.02,Wunderground v.1.15,2013-02-12 22:01:00,
2013-02-12 17:04:00,78.5,70.3,29.94,SSE,163,5.0,11.0,76,0.00,,,0.02,Wunderground v.1.15,2013-02-12 22:04:00,
2013-02-12 17:06:00,78.5,70.3,29.94,South,171,1.0,11.0,76,0.00,,,0.02,Wunderground v.1.15,2013-02-12 22:06:00,
2013-02-12 17:10:00,78.3,70.5,29.94,SE,136,2.0,7.0,77,0.00,,,0.02,Wunderground v.1.15,2013-02-12 22:10:00,
2013-02-12 17:11:00,78.3,70.5,29.94,SSE,153,3.0,7.0,77,0.00,,,0.02,Wunderground v.1.15,2013-02-12 22:11:00,
2013-02-12 17:12:00,78.2,70.4,29.94,SSE,167,7.0,8.0,77,0.00,,,0.02,Wunderground v.1.15,2013-02-12 22:12:00,
2013-02-12 17:16:00,78.0,70.2,29.94,SSE,163,8.0,10.0,77,0.00,,,0.02,Wunderground v.1.15,2013-02-12 22:16:00,
2013-02-12 17:17:00,77.9,70.1,29.94,SSE,164,6.0,11.0,77,0.00,,,0.02,Wunderground v.1.15,2013-02-12 22:17:00,
2013-02-12 17:21:00,77.8,70.4,29.94,SE,132,6.0,12.0,78,0.00,,,0.02,Wunderground v.1.15,2013-02-12 22:21:00,
2013-02-12 17:22:00,77.8,70.4,29.95,SE,145,2.0,12.0,78,0.00,,,0.02,Wunderground v.1.15,2013-02-12 22:22:00,
2013-02-12 17:26:00,77.7,70.3,29.95,SSE,158,4.0,12.0,78,0.00,,,0.02,Wunderground v.1.15,2013-02-12 22:26:00,
2013-02-12 17:27:00,77.7,70.3,29.95,SE,138,7.0,12.0,78,0.00,,,0.02,Wunderground v.1.15,2013-02-12 22:27:00,
2013-02-12 17:28:00,77.6,70.2,29.95,SSE,155,8.0,12.0,78,0.00,,,0.02,Wunderground v.1.15,2013-02-12 22:28:00,
2013-02-12 17:31:00,77.5,70.1,29.95,SE,146,2.0,11.0,78,0.00,,,0.02,Wunderground v.1.15,2013-02-12 22:31:00,
2013-02-12 17:32:00,77.5,70.1,29.95,SSW,201,6.0,11.0,78,0.00,,,0.02,Wunderground v.1.15,2013-02-12 22:32:00,
2013-02-12 17:34:00,77.5,70.1,29.95,SSE,159,0.0,11.0,78,0.00,,,0.02,Wunderground v.1.15,2013-02-12 22:34:00,
2013-02-12 17:37:00,77.4,70.0,29.95,SSE,162,4.0,11.0,78,0.00,,,0.02,Wunderground v.1.15,2013-02-12 22:37:00,
2013-02-12 17:38:00,77.4,70.0,29.95,SSE,157,0.0,11.0,78,0.00,,,0.02,Wunderground v.1.15,2013-02-12 22:38:00,
2013-02-12 17:39:00,77.4,70.4,29.95,SSE,156,4.0,11.0,79,0.00,,,0.02,Wunderground v.1.15,2013-02-12 22:39:00,
2013-02-12 17:42:00,77.3,70.3,29.95,SE,142,0.0,7.0,79,0.00,,,0.02,Wunderground v.1.15,2013-02-12 22:42:00,
2013-02-12 17:43:00,77.2,70.2,29.95,South,171,4.0,7.0,79,0.00,,,0.02,Wunderground v.1.15,2013-02-12 22:43:00,
2013-02-12 17:44:00,77.2,70.2,29.95,SE,138,4.0,7.0,79,0.00,,,0.02,Wunderground v.1.15,2013-02-12 22:44:00,
2013-02-12 17:45:00,77.2,70.2,29.95,SSE,161,4.0,7.0,79,0.00,,,0.02,Wunderground v.1.15,2013-02-12 22:45:00,
2013-02-12 17:48:00,77.1,70.1,29.95,SSE,162,4.0,9.0,79,0.00,,,0.02,Wunderground v.1.15,2013-02-12 22:48:00,
2013-02-12 17:49:00,77.0,70.0,29.95,SSE,163,0.0,9.0,79,0.00,,,0.02,Wunderground v.1.15,2013-02-12 22:49:00,
2013-02-12 17:50:00,77.0,70.0,29.95,South,174,3.0,8.0,79,0.00,,,0.02,Wunderground v.1.15,2013-02-12 22:50:00,
2013-02-12 17:54:00,76.9,69.9,29.95,SE,134,5.0,8.0,79,0.00,,,0.02,Wunderground v.1.15,2013-02-12 22:54:00,
2013-02-12 17:56:00,76.9,69.9,29.95,SSE,165,1.0,8.0,79,0.00,,,0.02,Wunderground v.1.15,2013-02-12 22:56:00,
2013-02-12 17:59:00,76.8,70.2,29.95,SE,142,0.0,8.0,80,0.00,,,0.02,Wunderground v.1.15,2013-02-12 22:59:00,
2013-02-12 18:00:00,76.8,70.2,29.95,SE,143,0.0,5.0,80,0.00,,,0.02,Wunderground v.1.15,2013-02-12 23:00:00,
2013-02-12 18:01:00,76.8,70.2,29.95,South,173,5.0,6.0,80,0.00,,,0.02,Wunderground v.1.15,2013-02-12 23:01:00,
2013-02-12 18:04:00,76.7,70.1,29.95,South,176,0.0,6.0,80,0.00,,,0.02,Wunderground v.1.15,2013-02-12 23:04:00,
2013-02-12 18:06:00,76.7,70.1,29.95,SSE,156,1.0,6.0,80,0.00,,,0.02,Wunderground v.1.15,2013-02-12 23:06:00,
2013-02-12 18:09:00,76.5,69.9,29.95,SSE,159,7.0,7.0,80,0.00,,,0.02,Wunderground v.1.15,2013-02-12 23:09:00,
2013-02-12 18:10:00,76.5,69.9,29.95,South,171,4.0,8.0,80,0.00,,,0.02,Wunderground v.1.15,2013-02-12 23:10:00,
2013-02-12 18:11:00,76.5,69.9,29.95,SSE,159,5.0,9.0,80,0.00,,,0.02,Wunderground v.1.15,2013-02-12 23:11:00,
2013-02-12 18:15:00,76.4,70.1,29.96,SE,131,7.0,9.0,81,0.00,,,0.02,Wunderground v.1.15,2013-02-12 23:15:00,
2013-02-12 18:16:00,76.4,70.1,29.95,South,178,6.0,9.0,81,0.00,,,0.02,Wunderground v.1.15,2013-02-12 23:16:00,
2013-02-12 18:17:00,76.4,70.1,29.95,South,169,6.0,9.0,81,0.00,,,0.02,Wunderground v.1.15,2013-02-12 23:17:00,
2013-02-12 18:20:00,76.3,70.0,29.95,South,176,7.0,7.0,81,0.00,,,0.02,Wunderground v.1.15,2013-02-12 23:20:00,
2013-02-12 18:22:00,76.2,69.9,29.95,SSE,156,0.0,9.0,81,0.00,,,0.02,Wunderground v.1.15,2013-02-12 23:22:00,
2013-02-12 18:25:00,76.2,69.9,29.95,SSE,150,0.0,9.0,81,0.00,,,0.02,Wunderground v.1.15,2013-02-12 23:25:00,
2013-02-12 18:27:00,76.1,69.8,29.95,SSE,155,1.0,9.0,81,0.00,,,0.02,Wunderground v.1.15,2013-02-12 23:27:00,
2013-02-12 18:30:00,76.0,69.7,29.96,South,177,7.0,7.0,81,0.00,,,0.02,Wunderground v.1.15,2013-02-12 23:30:00,
2013-02-12 18:31:00,76.0,69.7,29.95,SE,141,0.0,9.0,81,0.00,,,0.02,Wunderground v.1.15,2013-02-12 23:31:00,
2013-02-12 18:32:00,76.0,70.1,29.95,SE,142,6.0,9.0,82,0.00,,,0.02,Wunderground v.1.15,2013-02-12 23:32:00,
2013-02-12 18:33:00,76.0,70.1,29.95,SE,143,0.0,9.0,82,0.00,,,0.02,Wunderground v.1.15,2013-02-12 23:33:00,
2013-02-12 18:36:00,75.9,69.6,29.95,South,171,1.0,9.0,81,0.00,,,0.02,Wunderground v.1.15,2013-02-12 23:36:00,
2013-02-12 18:38:00,75.8,69.9,29.95,SSE,161,4.0,9.0,82,0.00,,,0.02,Wunderground v.1.15,2013-02-12 23:38:00,
2013-02-12 18:39:00,75.9,70.0,29.95,SSE,157,5.0,9.0,82,0.00,,,0.02,Wunderground v.1.15,2013-02-12 23:39:00,
2013-02-12 18:41:00,75.8,69.9,29.95,SSE,165,6.0,7.0,82,0.00,,,0.02,Wunderground v.1.15,2013-02-12 23:41:00,
2013-02-12 18:43:00,75.8,69.9,29.95,SSE,160,0.0,7.0,82,0.00,,,0.02,Wunderground v.1.15,2013-02-12 23:43:00,
2013-02-12 18:44:00,75.7,69.8,29.95,SSE,159,5.0,7.0,82,0.00,,,0.02,Wunderground v.1.15,2013-02-12 23:44:00,
2013-02-12 18:46:00,75.7,69.8,29.95,SSE,159,6.0,7.0,82,0.00,,,0.02,Wunderground v.1.15,2013-02-12 23:46:00,
2013-02-12 18:47:00,75.7,69.8,29.95,South,169,2.0,7.0,82,0.00,,,0.02,Wunderground v.1.15,2013-02-12 23:47:00,
2013-02-12 18:49:00,75.6,69.7,29.95,SSE,164,5.0,7.0,82,0.00,,,0.02,Wunderground v.1.15,2013-02-12 23:49:00,
2013-02-12 18:51:00,75.6,70.1,29.95,SSE,150,0.0,5.0,83,0.00,,,0.02,Wunderground v.1.15,2013-02-12 23:51:00,
2013-02-12 18:52:00,75.6,70.1,29.95,SSE,152,3.0,8.0,83,0.00,,,0.02,Wunderground v.1.15,2013-02-12 23:52:00,
2013-02-12 18:54:00,75.5,70.0,29.95,SE,144,4.0,9.0,83,0.00,,,0.02,Wunderground v.1.15,2013-02-12 23:54:00,
2013-02-12 18:55:00,75.5,70.0,29.95,SSE,163,7.0,9.0,83,0.00,,,0.02,Wunderground v.1.15,2013-02-12 23:55:00,
2013-02-12 18:58:00,75.4,69.9,29.95,SE,144,1.0,9.0,83,0.00,,,0.02,Wunderground v.1.15,2013-02-12 23:58:00,
2013-02-12 18:59:00,75.4,69.9,29.95,SE,143,4.0,9.0,83,0.00,,,0.02,Wunderground v.1.15,2013-02-12 23:59:00,
2013-02-12 19:01:00,75.3,69.8,29.95,SSE,158,5.0,8.0,83,0.00,,,0.02,Wunderground v.1.15,2013-02-13 00:01:00,
2013-02-12 19:03:00,75.3,69.8,29.95,SSE,158,0.0,8.0,83,0.00,,,0.02,Wunderground v.1.15,2013-02-13 00:03:00,
2013-02-12 19:04:00,75.3,69.8,29.95,SSE,159,0.0,8.0,83,0.00,,,0.02,Wunderground v.1.15,2013-02-13 00:04:00,
2013-02-12 19:05:00,75.3,69.8,29.95,SSE,155,4.0,8.0,83,0.00,,,0.02,Wunderground v.1.15,2013-02-13 00:05:00,
2013-02-12 19:06:00,75.3,69.8,29.95,SE,146,3.0,8.0,83,0.00,,,0.02,Wunderground v.1.15,2013-02-13 00:06:00,
2013-02-12 19:08:00,75.2,69.7,29.95,SSE,150,4.0,8.0,83,0.00,,,0.02,Wunderground v.1.15,2013-02-13 00:08:00,
2013-02-12 19:09:00,75.2,69.7,29.95,South,176,3.0,8.0,83,0.00,,,0.02,Wunderground v.1.15,2013-02-13 00:09:00,
2013-02-12 19:10:00,75.1,69.6,29.95,SSW,192,2.0,5.0,83,0.00,,,0.02,Wunderground v.1.15,2013-02-13 00:10:00,
2013-02-12 19:11:00,75.1,69.6,29.95,SSE,150,4.0,5.0,83,0.00,,,0.02,Wunderground v.1.15,2013-02-13 00:11:00,
2013-02-12 19:13:00,75.0,69.5,29.96,South,173,6.0,6.0,83,0.00,,,0.02,Wunderground v.1.15,2013-02-13 00:13:00,
2013-02-12 19:14:00,75.0,69.5,29.96,SSE,152,0.0,8.0,83,0.00,,,0.02,Wunderground v.1.15,2013-02-13 00:14:00,
2013-02-12 19:16:00,75.0,69.8,29.96,South,180,0.0,8.0,84,0.00,,,0.02,Wunderground v.1.15,2013-02-13 00:16:00,
2013-02-12 19:19:00,74.9,69.7,29.96,South,175,0.0,8.0,84,0.00,,,0.02,Wunderground v.1.15,2013-02-13 00:19:00,
2013-02-12 19:21:00,74.9,69.7,29.96,SSE,153,0.0,7.0,84,0.00,,,0.02,Wunderground v.1.15,2013-02-13 00:21:00,
2013-02-12 19:24:00,74.8,69.6,29.96,SSE,162,0.0,7.0,84,0.00,,,0.02,Wunderground v.1.15,2013-02-13 00:24:00,
2013-02-12 19:25:00,74.8,69.6,29.96,SSE,159,0.0,7.0,84,0.00,,,0.02,Wunderground v.1.15,2013-02-13 00:25:00,
2013-02-12 19:26:00,74.8,69.6,29.96,SSE,159,0.0,7.0,84,0.00,,,0.02,Wunderground v.1.15,2013-02-13 00:26:00,
2013-02-12 19:29:00,74.6,69.4,29.96,SSE,155,3.0,8.0,84,0.00,,,0.02,Wunderground v.1.15,2013-02-13 00:29:00,
2013-02-12 19:31:00,74.6,69.4,29.96,SSE,167,1.0,6.0,84,0.00,,,0.02,Wunderground v.1.15,2013-02-13 00:31:00,
2013-02-12 19:35:00,74.5,69.7,29.96,SSE,166,0.0,6.0,85,0.00,,,0.02,Wunderground v.1.15,2013-02-13 00:35:00,
2013-02-12 19:36:00,74.4,69.6,29.96,SSE,148,2.0,6.0,85,0.00,,,0.02,Wunderground v.1.15,2013-02-13 00:36:00,
2013-02-12 19:37:00,74.4,69.6,29.96,SSE,168,5.0,6.0,85,0.00,,,0.02,Wunderground v.1.15,2013-02-13 00:37:00,
2013-02-12 19:40:00,74.4,69.6,29.96,ESE,119,4.0,4.0,85,0.00,,,0.02,Wunderground v.1.15,2013-02-13 00:40:00,
2013-02-12 19:42:00,74.3,69.5,29.95,SSE,162,0.0,4.0,85,0.00,,,0.02,Wunderground v.1.15,2013-02-13 00:42:00,
2013-02-12 19:43:00,74.3,69.5,29.95,SSE,167,1.0,4.0,85,0.00,,,0.02,Wunderground v.1.15,2013-02-13 00:43:00,
2013-02-12 19:45:00,74.3,69.5,29.95,SSE,163,2.0,5.0,85,0.00,,,0.02,Wunderground v.1.15,2013-02-13 00:45:00,
2013-02-12 19:47:00,74.3,69.5,29.96,SSE,163,2.0,5.0,85,0.00,,,0.02,Wunderground v.1.15,2013-02-13 00:47:00,
2013-02-12 19:48:00,74.3,69.5,29.96,SSE,147,0.0,5.0,85,0.00,,,0.02,Wunderground v.1.15,2013-02-13 00:48:00,
2013-02-12 19:49:00,74.2,69.4,29.96,SSE,167,0.0,7.0,85,0.00,,,0.02,Wunderground v.1.15,2013-02-13 00:49:00,
2013-02-12 19:51:00,74.2,69.4,29.96,South,184,2.0,6.0,85,0.00,,,0.02,Wunderground v.1.15,2013-02-13 00:51:00,
2013-02-12 19:52:00,74.2,69.4,29.96,South,178,2.0,6.0,85,0.00,,,0.02,Wunderground v.1.15,2013-02-13 00:52:00,
2013-02-12 19:53:00,74.2,69.4,29.96,South,169,4.0,6.0,85,0.00,,,0.02,Wunderground v.1.15,2013-02-13 00:53:00,
2013-02-12 19:54:00,74.2,69.4,29.96,SSE,167,0.0,6.0,85,0.00,,,0.02,Wunderground v.1.15,2013-02-13 00:54:00,
2013-02-12 19:56:00,74.1,69.3,29.96,SSE,165,5.0,6.0,85,0.00,,,0.02,Wunderground v.1.15,2013-02-13 00:56:00,
2013-02-12 19:58:00,74.1,69.3,29.96,South,171,3.0,6.0,85,0.00,,,0.02,Wunderground v.1.15,2013-02-13 00:58:00,
2013-02-12 19:59:00,74.1,69.3,29.96,South,177,0.0,6.0,85,0.00,,,0.02,Wunderground v.1.15,2013-02-13 00:59:00,
2013-02-12 20:02:00,74.0,69.2,29.96,SSE,168,4.0,4.0,85,0.00,,,0.02,Wunderground v.1.15,2013-02-13 01:02:00,
2013-02-12 20:04:00,74.0,69.5,29.96,SSE,160,0.0,6.0,86,0.00,,,0.02,Wunderground v.1.15,2013-02-13 01:04:00,
2013-02-12 20:05:00,74.0,69.5,29.96,SSE,165,1.0,6.0,86,0.00,,,0.02,Wunderground v.1.15,2013-02-13 01:05:00,
2013-02-12 20:07:00,74.0,69.5,29.96,SSE,167,2.0,6.0,86,0.00,,,0.02,Wunderground v.1.15,2013-02-13 01:07:00,
2013-02-12 20:09:00,73.9,69.4,29.96,SSE,167,0.0,6.0,86,0.00,,,0.02,Wunderground v.1.15,2013-02-13 01:09:00,
2013-02-12 20:10:00,73.9,69.4,29.96,SSE,167,2.0,2.0,86,0.00,,,0.02,Wunderground v.1.15,2013-02-13 01:10:00,
2013-02-12 20:11:00,73.9,69.4,29.96,SSW,195,0.0,4.0,86,0.00,,,0.02,Wunderground v.1.15,2013-02-13 01:11:00,
2013-02-12 20:12:00,73.8,69.0,29.96,SSW,194,0.0,4.0,85,0.00,,,0.02,Wunderground v.1.15,2013-02-13 01:12:00,
2013-02-12 20:14:00,73.8,69.0,29.96,South,176,0.0,4.0,85,0.00,,,0.02,Wunderground v.1.15,2013-02-13 01:14:00,
2013-02-12 20:15:00,73.7,68.9,29.95,South,176,0.0,4.0,85,0.00,,,0.02,Wunderground v.1.15,2013-02-13 01:15:00,
2013-02-12 20:16:00,73.7,68.9,29.95,South,176,0.0,4.0,85,0.00,,,0.02,Wunderground v.1.15,2013-02-13 01:16:00,
2013-02-12 20:17:00,73.7,69.2,29.96,South,177,0.0,4.0,86,0.00,,,0.02,Wunderground v.1.15,2013-02-13 01:17:00,
2013-02-12 20:20:00,73.7,68.9,29.96,South,175,0.0,1.0,85,0.00,,,0.02,Wunderground v.1.15,2013-02-13 01:20:00,
2013-02-12 20:21:00,73.7,68.9,29.96,South,175,0.0,5.0,85,0.00,,,0.02,Wunderground v.1.15,2013-02-13 01:21:00,
2013-02-12 20:23:00,73.7,69.2,29.96,South,175,2.0,5.0,86,0.00,,,0.02,Wunderground v.1.15,2013-02-13 01:23:00,
2013-02-12 20:25:00,73.6,68.8,29.96,South,175,0.0,5.0,85,0.00,,,0.02,Wunderground v.1.15,2013-02-13 01:25:00,
2013-02-12 20:26:00,73.6,68.8,29.96,South,175,0.0,5.0,85,0.00,,,0.02,Wunderground v.1.15,2013-02-13 01:26:00,
2013-02-12 20:28:00,73.5,69.1,29.97,South,175,0.0,5.0,86,0.00,,,0.02,Wunderground v.1.15,2013-02-13 01:28:00,
2013-02-12 20:30:00,73.5,69.1,29.96,South,175,0.0,0.0,86,0.00,,,0.02,Wunderground v.1.15,2013-02-13 01:30:00,
2013-02-12 20:32:00,73.4,69.0,29.96,South,175,0.0,0.0,86,0.00,,,0.02,Wunderground v.1.15,2013-02-13 01:32:00,
2013-02-12 20:33:00,73.4,69.0,29.96,South,175,0.0,0.0,86,0.00,,,0.02,Wunderground v.1.15,2013-02-13 01:33:00,
2013-02-12 20:36:00,73.4,69.0,29.96,South,175,0.0,1.0,86,0.00,,,0.02,Wunderground v.1.15,2013-02-13 01:36:00,
2013-02-12 20:37:00,73.3,68.9,29.96,South,175,0.0,1.0,86,0.00,,,0.02,Wunderground v.1.15,2013-02-13 01:37:00,
2013-02-12 20:38:00,73.3,69.2,29.96,SSE,155,0.0,4.0,87,0.00,,,0.02,Wunderground v.1.15,2013-02-13 01:38:00,
2013-02-12 20:41:00,73.3,69.2,29.96,SSE,155,0.0,3.0,87,0.00,,,0.02,Wunderground v.1.15,2013-02-13 01:41:00,
2013-02-12 20:42:00,73.3,69.2,29.96,SSE,155,0.0,3.0,87,0.00,,,0.02,Wunderground v.1.15,2013-02-13 01:42:00,
2013-02-12 20:44:00,73.3,69.2,29.96,SSE,155,0.0,3.0,87,0.00,,,0.02,Wunderground v.1.15,2013-02-13 01:44:00,
2013-02-12 20:46:00,73.2,69.1,29.96,SSE,155,0.0,3.0,87,0.00,,,0.02,Wunderground v.1.15,2013-02-13 01:46:00,
2013-02-12 20:47:00,73.2,69.1,29.97,SSE,155,0.0,3.0,87,0.00,,,0.02,Wunderground v.1.15,2013-02-13 01:47:00,
2013-02-12 20:49:00,73.1,69.0,29.97,SSE,155,0.0,3.0,87,0.00,,,0.02,Wunderground v.1.15,2013-02-13 01:49:00,
2013-02-12 20:50:00,73.1,69.0,29.97,SSE,155,0.0,0.0,87,0.00,,,0.02,Wunderground v.1.15,2013-02-13 01:50:00,
2013-02-12 20:51:00,73.0,68.9,29.97,SSE,155,0.0,0.0,87,0.00,,,0.02,Wunderground v.1.15,2013-02-13 01:51:00,
2013-02-12 20:52:00,73.0,68.9,29.97,SSE,155,0.0,0.0,87,0.00,,,0.02,Wunderground v.1.15,2013-02-13 01:52:00,
2013-02-12 20:54:00,73.0,68.9,29.97,SSE,155,0.0,0.0,87,0.00,,,0.02,Wunderground v.1.15,2013-02-13 01:54:00,
2013-02-12 20:56:00,73.0,68.9,29.97,SSE,155,0.0,0.0,87,0.00,,,0.02,Wunderground v.1.15,2013-02-13 01:56:00,
2013-02-12 20:57:00,72.9,68.8,29.97,SSE,155,0.0,0.0,87,0.00,,,0.02,Wunderground v.1.15,2013-02-13 01:57:00,
2013-02-12 20:59:00,72.9,69.1,29.97,SSE,155,0.0,0.0,88,0.00,,,0.02,Wunderground v.1.15,2013-02-13 01:59:00,
2013-02-12 21:01:00,72.8,69.0,29.97,SSE,155,0.0,1.0,88,0.00,,,0.02,Wunderground v.1.15,2013-02-13 02:01:00,
2013-02-12 21:02:00,72.8,69.0,29.97,SSE,155,0.0,1.0,88,0.00,,,0.02,Wunderground v.1.15,2013-02-13 02:02:00,
2013-02-12 21:05:00,72.8,69.0,29.97,SSE,155,0.0,1.0,88,0.00,,,0.02,Wunderground v.1.15,2013-02-13 02:05:00,
2013-02-12 21:06:00,72.7,68.9,29.97,SSE,155,0.0,1.0,88,0.00,,,0.02,Wunderground v.1.15,2013-02-13 02:06:00,
2013-02-12 21:07:00,72.6,68.8,29.97,SSE,155,0.0,1.0,88,0.00,,,0.02,Wunderground v.1.15,2013-02-13 02:07:00,
2013-02-12 21:09:00,72.5,68.7,29.97,SSE,155,0.0,1.0,88,0.00,,,0.02,Wunderground v.1.15,2013-02-13 02:09:00,
2013-02-12 21:10:00,72.5,68.7,29.97,SSE,155,0.0,0.0,88,0.00,,,0.02,Wunderground v.1.15,2013-02-13 02:10:00,
2013-02-12 21:12:00,72.4,68.6,29.97,SSE,155,0.0,0.0,88,0.00,,,0.02,Wunderground v.1.15,2013-02-13 02:12:00,
2013-02-12 21:14:00,72.2,68.4,29.97,SSE,155,0.0,0.0,88,0.00,,,0.02,Wunderground v.1.15,2013-02-13 02:14:00,
2013-02-12 21:15:00,72.2,68.8,29.98,SSE,155,0.0,0.0,89,0.00,,,0.02,Wunderground v.1.15,2013-02-13 02:15:00,
2013-02-12 21:17:00,72.1,68.7,29.98,SSE,155,0.0,0.0,89,0.00,,,0.02,Wunderground v.1.15,2013-02-13 02:17:00,
2013-02-12 21:19:00,71.9,68.5,29.98,SSE,155,0.0,0.0,89,0.00,,,0.02,Wunderground v.1.15,2013-02-13 02:19:00,
2013-02-12 21:20:00,71.9,68.5,29.98,SSE,155,0.0,0.0,89,0.00,,,0.02,Wunderground v.1.15,2013-02-13 02:20:00,
2013-02-12 21:22:00,71.8,68.4,29.98,SSE,155,0.0,0.0,89,0.00,,,0.02,Wunderground v.1.15,2013-02-13 02:22:00,
2013-02-12 21:24:00,71.5,68.1,29.99,SSE,155,0.0,0.0,89,0.00,,,0.02,Wunderground v.1.15,2013-02-13 02:24:00,
2013-02-12 21:25:00,71.4,68.0,29.98,SSE,155,0.0,0.0,89,0.00,,,0.02,Wunderground v.1.15,2013-02-13 02:25:00,
2013-02-12 21:27:00,71.3,67.9,29.98,SSE,155,0.0,0.0,89,0.00,,,0.02,Wunderground v.1.15,2013-02-13 02:27:00,
2013-02-12 21:28:00,71.1,68.0,29.98,SSE,155,0.0,0.0,90,0.00,,,0.02,Wunderground v.1.15,2013-02-13 02:28:00,
2013-02-12 21:30:00,70.9,67.8,29.99,SSE,155,0.0,0.0,90,0.00,,,0.02,Wunderground v.1.15,2013-02-13 02:30:00,
2013-02-12 21:31:00,70.8,67.7,29.99,SSE,155,0.0,0.0,90,0.00,,,0.02,Wunderground v.1.15,2013-02-13 02:31:00,
2013-02-12 21:32:00,70.7,67.6,29.99,SSE,155,0.0,0.0,90,0.00,,,0.02,Wunderground v.1.15,2013-02-13 02:32:00,
2013-02-12 21:34:00,70.5,67.4,29.99,SSE,155,0.0,0.0,90,0.00,,,0.02,Wunderground v.1.15,2013-02-13 02:34:00,
2013-02-12 21:35:00,70.4,67.3,29.99,SSE,155,0.0,0.0,90,0.00,,,0.02,Wunderground v.1.15,2013-02-13 02:35:00,
2013-02-12 21:36:00,70.3,67.2,29.99,SSE,155,0.0,0.0,90,0.00,,,0.02,Wunderground v.1.15,2013-02-13 02:36:00,
2013-02-12 21:38:00,70.1,67.3,29.99,SSE,155,0.0,0.0,91,0.00,,,0.02,Wunderground v.1.15,2013-02-13 02:38:00,
2013-02-12 21:39:00,70.0,67.3,29.99,SSE,155,0.0,0.0,91,0.00,,,0.02,Wunderground v.1.15,2013-02-13 02:39:00,
2013-02-12 21:40:00,69.9,67.2,29.99,SSE,155,0.0,0.0,91,0.00,,,0.02,Wunderground v.1.15,2013-02-13 02:40:00,
2013-02-12 21:41:00,69.8,67.1,29.99,SSE,155,0.0,0.0,91,0.00,,,0.02,Wunderground v.1.15,2013-02-13 02:41:00,
2013-02-12 21:43:00,69.7,67.0,29.99,SSE,155,0.0,0.0,91,0.00,,,0.02,Wunderground v.1.15,2013-02-13 02:43:00,
2013-02-12 21:45:00,69.6,66.9,29.99,SSE,155,0.0,0.0,91,0.00,,,0.02,Wunderground v.1.15,2013-02-13 02:45:00,
2013-02-12 21:46:00,69.5,66.8,29.99,SSE,155,0.0,0.0,91,0.00,,,0.02,Wunderground v.1.15,2013-02-13 02:46:00,
2013-02-12 21:47:00,69.5,67.1,29.99,SSE,155,0.0,0.0,92,0.00,,,0.02,Wunderground v.1.15,2013-02-13 02:47:00,
2013-02-12 21:48:00,69.4,67.0,29.99,SSE,155,0.0,0.0,92,0.00,,,0.02,Wunderground v.1.15,2013-02-13 02:48:00,
2013-02-12 21:50:00,69.2,66.8,29.99,SSE,155,0.0,0.0,92,0.00,,,0.02,Wunderground v.1.15,2013-02-13 02:50:00,
2013-02-12 21:51:00,69.2,66.8,29.99,SSE,155,0.0,0.0,92,0.00,,,0.02,Wunderground v.1.15,2013-02-13 02:51:00,
2013-02-12 21:52:00,69.2,66.8,29.99,SSE,155,0.0,0.0,92,0.00,,,0.02,Wunderground v.1.15,2013-02-13 02:52:00,
2013-02-12 21:53:00,69.1,66.7,29.99,SSE,155,0.0,0.0,92,0.00,,,0.02,Wunderground v.1.15,2013-02-13 02:53:00,
2013-02-12 21:55:00,69.0,66.6,29.99,SSE,155,0.0,0.0,92,0.00,,,0.02,Wunderground v.1.15,2013-02-13 02:55:00,
2013-02-12 21:57:00,69.0,66.6,29.99,SSE,155,0.0,0.0,92,0.00,,,0.02,Wunderground v.1.15,2013-02-13 02:57:00,
2013-02-12 21:59:00,68.9,66.5,29.99,SSE,155,0.0,0.0,92,0.00,,,0.02,Wunderground v.1.15,2013-02-13 02:59:00,
2013-02-12 22:01:00,68.8,66.7,29.99,SSE,155,0.0,0.0,93,0.00,,,0.02,Wunderground v.1.15,2013-02-13 03:01:00,
2013-02-12 22:02:00,68.7,66.6,29.99,SSE,155,0.0,0.0,93,0.00,,,0.02,Wunderground v.1.15,2013-02-13 03:02:00,
2013-02-12 22:03:00,68.7,66.6,29.99,SSE,155,0.0,0.0,93,0.00,,,0.02,Wunderground v.1.15,2013-02-13 03:03:00,
2013-02-12 22:05:00,68.8,66.7,29.99,SSE,155,0.0,0.0,93,0.00,,,0.02,Wunderground v.1.15,2013-02-13 03:05:00,
2013-02-12 22:06:00,68.8,66.7,29.99,SSE,155,0.0,0.0,93,0.00,,,0.02,Wunderground v.1.15,2013-02-13 03:06:00,
2013-02-12 22:08:00,68.8,66.7,29.99,SSE,155,0.0,0.0,93,0.00,,,0.02,Wunderground v.1.15,2013-02-13 03:08:00,
2013-02-12 22:10:00,68.7,66.6,29.99,SSE,155,0.0,0.0,93,0.00,,,0.02,Wunderground v.1.15,2013-02-13 03:10:00,
2013-02-12 22:12:00,68.6,66.5,29.99,SSE,155,0.0,0.0,93,0.00,,,0.02,Wunderground v.1.15,2013-02-13 03:12:00,
2013-02-12 22:13:00,68.5,66.4,29.99,SSE,155,0.0,0.0,93,0.00,,,0.02,Wunderground v.1.15,2013-02-13 03:13:00,
2013-02-12 22:15:00,68.4,66.3,29.99,SSE,155,0.0,0.0,93,0.00,,,0.02,Wunderground v.1.15,2013-02-13 03:15:00,
2013-02-12 22:17:00,68.5,66.4,30.00,SSE,155,0.0,0.0,93,0.00,,,0.02,Wunderground v.1.15,2013-02-13 03:17:00,
2013-02-12 22:18:00,68.5,66.7,29.99,SSE,155,0.0,0.0,94,0.00,,,0.02,Wunderground v.1.15,2013-02-13 03:18:00,
2013-02-12 22:19:00,68.5,66.7,29.99,SSE,155,0.0,0.0,94,0.00,,,0.02,Wunderground v.1.15,2013-02-13 03:19:00,
2013-02-12 22:21:00,68.6,66.8,29.99,SSE,155,0.0,0.0,94,0.00,,,0.02,Wunderground v.1.15,2013-02-13 03:21:00,
2013-02-12 22:22:00,68.6,66.8,29.99,SSE,155,0.0,0.0,94,0.00,,,0.02,Wunderground v.1.15,2013-02-13 03:22:00,
2013-02-12 22:24:00,68.7,66.9,30.00,SSE,155,0.0,0.0,94,0.00,,,0.02,Wunderground v.1.15,2013-02-13 03:24:00,
2013-02-12 22:26:00,68.7,66.9,29.99,SSE,155,0.0,0.0,94,0.00,,,0.02,Wunderground v.1.15,2013-02-13 03:26:00,
2013-02-12 22:27:00,68.7,66.9,29.99,SSE,155,0.0,0.0,94,0.00,,,0.02,Wunderground v.1.15,2013-02-13 03:27:00,
2013-02-12 22:29:00,68.8,67.0,29.99,SSE,155,0.0,0.0,94,0.00,,,0.02,Wunderground v.1.15,2013-02-13 03:29:00,
2013-02-12 22:30:00,68.8,67.0,29.99,SSE,155,0.0,0.0,94,0.00,,,0.02,Wunderground v.1.15,2013-02-13 03:30:00,
2013-02-12 22:32:00,68.8,67.0,29.99,SSE,155,0.0,0.0,94,0.00,,,0.02,Wunderground v.1.15,2013-02-13 03:32:00,
2013-02-12 22:33:00,68.8,67.0,30.00,SSE,155,0.0,0.0,94,0.00,,,0.02,Wunderground v.1.15,2013-02-13 03:33:00,
2013-02-12 22:34:00,68.8,67.0,30.00,SSE,155,0.0,0.0,94,0.00,,,0.02,Wunderground v.1.15,2013-02-13 03:34:00,
2013-02-12 22:36:00,68.8,67.0,30.00,SSE,155,0.0,0.0,94,0.00,,,0.02,Wunderground v.1.15,2013-02-13 03:36:00,
2013-02-12 22:37:00,68.9,67.1,29.99,SSE,155,0.0,0.0,94,0.00,,,0.02,Wunderground v.1.15,2013-02-13 03:37:00,
2013-02-12 22:38:00,68.9,67.1,29.99,SSE,155,0.0,0.0,94,0.00,,,0.02,Wunderground v.1.15,2013-02-13 03:38:00,
2013-02-12 22:40:00,68.8,67.0,29.99,SSE,155,0.0,0.0,94,0.00,,,0.02,Wunderground v.1.15,2013-02-13 03:40:00,
2013-02-12 22:41:00,68.8,67.0,29.99,SSE,155,0.0,0.0,94,0.00,,,0.02,Wunderground v.1.15,2013-02-13 03:41:00,
2013-02-12 22:42:00,68.7,66.9,29.99,SSE,155,0.0,0.0,94,0.00,,,0.02,Wunderground v.1.15,2013-02-13 03:42:00,
2013-02-12 22:43:00,68.6,66.8,29.99,SSE,155,0.0,0.0,94,0.00,,,0.02,Wunderground v.1.15,2013-02-13 03:43:00,
2013-02-12 22:45:00,68.5,66.7,30.00,SSE,155,0.0,0.0,94,0.00,,,0.02,Wunderground v.1.15,2013-02-13 03:45:00,
2013-02-12 22:46:00,68.4,66.6,29.99,SSE,155,0.0,0.0,94,0.00,,,0.02,Wunderground v.1.15,2013-02-13 03:46:00,
2013-02-12 22:48:00,68.4,66.6,30.00,SSE,155,0.0,0.0,94,0.00,,,0.02,Wunderground v.1.15,2013-02-13 03:48:00,
2013-02-12 22:52:00,68.5,66.7,29.99,SSE,155,0.0,0.0,94,0.00,,,0.02,Wunderground v.1.15,2013-02-13 03:52:00,
2013-02-12 22:53:00,68.5,66.7,29.99,SSE,155,0.0,0.0,94,0.00,,,0.02,Wunderground v.1.15,2013-02-13 03:53:00,
2013-02-12 22:58:00,68.5,67.0,29.99,SSE,155,0.0,0.0,95,0.00,,,0.02,Wunderground v.1.15,2013-02-13 03:58:00,
2013-02-12 23:03:00,68.5,67.0,29.99,SSE,155,0.0,0.0,95,0.00,,,0.02,Wunderground v.1.15,2013-02-13 04:03:00,
2013-02-12 23:04:00,68.4,66.9,29.99,SSE,155,0.0,0.0,95,0.00,,,0.02,Wunderground v.1.15,2013-02-13 04:04:00,
2013-02-12 23:08:00,68.2,66.7,29.99,SSE,155,0.0,0.0,95,0.00,,,0.02,Wunderground v.1.15,2013-02-13 04:08:00,
2013-02-12 23:09:00,68.2,66.7,29.99,SSE,155,0.0,0.0,95,0.00,,,0.02,Wunderground v.1.15,2013-02-13 04:09:00,
2013-02-12 23:13:00,68.0,66.5,29.99,SSE,155,0.0,0.0,95,0.00,,,0.02,Wunderground v.1.15,2013-02-13 04:13:00,
2013-02-12 23:14:00,68.0,66.5,29.99,SSE,155,0.0,0.0,95,0.00,,,0.02,Wunderground v.1.15,2013-02-13 04:14:00,
2013-02-12 23:16:00,68.1,66.6,29.99,SSE,155,0.0,0.0,95,0.00,,,0.02,Wunderground v.1.15,2013-02-13 04:16:00,
2013-02-12 23:18:00,68.1,66.6,29.99,SSE,155,0.0,0.0,95,0.00,,,0.02,Wunderground v.1.15,2013-02-13 04:18:00,
2013-02-12 23:19:00,68.0,66.5,29.99,SSE,155,0.0,0.0,95,0.00,,,0.02,Wunderground v.1.15,2013-02-13 04:19:00,
2013-02-12 23:21:00,68.1,66.6,29.99,SSE,155,0.0,0.0,95,0.00,,,0.02,Wunderground v.1.15,2013-02-13 04:21:00,
2013-02-12 23:24:00,68.1,66.6,29.99,SSE,155,0.0,0.0,95,0.00,,,0.02,Wunderground v.1.15,2013-02-13 04:24:00,
2013-02-12 23:25:00,68.1,66.6,29.99,SSE,155,0.0,0.0,95,0.00,,,0.02,Wunderground v.1.15,2013-02-13 04:25:00,
2013-02-12 23:26:00,68.1,66.6,29.99,SSE,155,0.0,0.0,95,0.00,,,0.02,Wunderground v.1.15,2013-02-13 04:26:00,
2013-02-12 23:29:00,68.1,66.6,29.99,SSE,155,0.0,0.0,95,0.00,,,0.02,Wunderground v.1.15,2013-02-13 04:29:00,
2013-02-12 23:30:00,68.1,66.6,29.99,SSE,155,0.0,0.0,95,0.00,,,0.02,Wunderground v.1.15,2013-02-13 04:30:00,
2013-02-12 23:31:00,68.1,66.6,29.99,SSE,155,0.0,0.0,95,0.00,,,0.02,Wunderground v.1.15,2013-02-13 04:31:00,
2013-02-12 23:34:00,68.0,66.5,29.99,SSE,155,0.0,0.0,95,0.00,,,0.02,Wunderground v.1.15,2013-02-13 04:34:00,
2013-02-12 23:35:00,68.0,66.5,29.99,SSE,155,0.0,0.0,95,0.00,,,0.02,Wunderground v.1.15,2013-02-13 04:35:00,
2013-02-12 23:36:00,68.0,66.5,29.99,SSE,155,0.0,0.0,95,0.00,,,0.02,Wunderground v.1.15,2013-02-13 04:36:00,
2013-02-12 23:37:00,67.9,66.4,29.99,SSE,155,0.0,0.0,95,0.00,,,0.02,Wunderground v.1.15,2013-02-13 04:37:00,
2013-02-12 23:39:00,67.7,66.2,29.99,SSE,155,0.0,0.0,95,0.00,,,0.02,Wunderground v.1.15,2013-02-13 04:39:00,
2013-02-12 23:40:00,67.7,66.2,29.98,SSE,155,0.0,0.0,95,0.00,,,0.02,Wunderground v.1.15,2013-02-13 04:40:00,
2013-02-12 23:41:00,67.7,66.2,29.98,SSE,155,0.0,0.0,95,0.00,,,0.02,Wunderground v.1.15,2013-02-13 04:41:00,
2013-02-12 23:42:00,67.7,66.2,29.98,SSE,155,0.0,0.0,95,0.00,,,0.02,Wunderground v.1.15,2013-02-13 04:42:00,
2013-02-12 23:45:00,67.7,66.2,29.98,SSE,155,0.0,0.0,95,0.00,,,0.02,Wunderground v.1.15,2013-02-13 04:45:00,
2013-02-12 23:46:00,67.7,66.2,29.98,SSE,155,0.0,0.0,95,0.00,,,0.02,Wunderground v.1.15,2013-02-13 04:46:00,
2013-02-12 23:47:00,67.6,66.1,29.98,SSE,155,0.0,0.0,95,0.00,,,0.02,Wunderground v.1.15,2013-02-13 04:47:00,
2013-02-12 23:50:00,67.7,66.2,29.98,SSE,155,0.0,0.0,95,0.00,,,0.02,Wunderground v.1.15,2013-02-13 04:50:00,
2013-02-12 23:51:00,67.7,66.2,29.98,SSE,155,0.0,0.0,95,0.00,,,0.02,Wunderground v.1.15,2013-02-13 04:51:00,
2013-02-12 23:52:00,67.7,66.5,29.98,SSE,155,0.0,0.0,96,0.00,,,0.02,Wunderground v.1.15,2013-02-13 04:52:00,
2013-02-12 23:55:00,67.9,66.7,29.98,SSE,155,0.0,0.0,96,0.00,,,0.02,Wunderground v.1.15,2013-02-13 04:55:00,
2013-02-12 23:56:00,67.9,66.7,29.98,SSE,155,0.0,0.0,96,0.00,,,0.02,Wunderground v.1.15,2013-02-13 04:56:00,
2013-02-12 23:59:00,68.1,66.9,29.98,SSE,155,0.0,0.0,96,0.00,,,0.02,Wunderground v.1.15,2013-02-13 04:59:00,